Time,TemperatureF,DewpointF,PressureIn,WindDirection,WindDirectionDegrees,WindSpeedMPH,WindSpeedGustMPH,Humidity,HourlyPrecipIn,Conditions,Clouds,dailyrainin,SoftwareType,DateUTC
2013-05-11 00:00:00,45.3,42.0,30.07,West,270,0.0,0.0,88,0.00,,,0.00,VWS V14.01,2013-05-11 05:00:00,
2013-05-11 00:01:00,45.3,42.0,30.07,West,270,0.0,0.0,88,0.00,,,0.00,VWS V14.01,2013-05-11 05:01:00,
2013-05-11 00:02:00,45.3,42.0,30.07,West,270,0.0,0.0,88,0.00,,,0.00,VWS V14.01,2013-05-11 05:02:00,
2013-05-11 00:03:00,45.3,42.0,30.06,West,270,0.0,0.0,88,0.00,,,0.00,VWS V14.01,2013-05-11 05:03:00,
2013-05-11 00:04:00,45.3,42.0,30.07,West,270,0.0,0.0,88,0.00,,,0.00,VWS V14.01,2013-05-11 05:04:00,
2013-05-11 00:05:00,45.3,42.0,30.06,West,270,0.0,0.0,88,0.00,,,0.00,VWS V14.01,2013-05-11 05:05:00,
2013-05-11 00:06:00,45.3,42.0,30.06,West,270,0.0,0.0,88,0.00,,,0.00,VWS V14.01,2013-05-11 05:06:00,
2013-05-11 00:07:00,45.3,42.0,30.07,West,270,0.0,0.0,88,0.00,,,0.00,VWS V14.01,2013-05-11 05:07:00,
2013-05-11 00:08:00,45.3,42.0,30.07,West,270,0.0,0.0,88,0.00,,,0.00,VWS V14.01,2013-05-11 05:08:00,
2013-05-11 00:09:00,45.5,42.2,30.07,West,270,0.0,0.0,88,0.00,,,0.00,VWS V14.01,2013-05-11 05:09:00,
2013-05-11 00:10:00,45.5,42.2,30.07,West,270,0.0,0.0,88,0.00,,,0.00,VWS V14.01,2013-05-11 05:10:00,
2013-05-11 00:11:00,45.5,42.2,30.07,West,270,0.0,0.0,88,0.00,,,0.00,VWS V14.01,2013-05-11 05:11:00,
2013-05-11 00:12:00,45.6,42.3,30.07,West,270,0.0,0.0,88,0.00,,,0.00,VWS V14.01,2013-05-11 05:12:00,
2013-05-11 00:13:00,45.6,42.3,30.07,West,270,0.0,0.0,88,0.00,,,0.00,VWS V14.01,2013-05-11 05:13:00,
2013-05-11 00:14:00,45.6,42.3,30.07,West,270,0.0,0.0,88,0.00,,,0.00,VWS V14.01,2013-05-11 05:14:00,
2013-05-11 00:15:00,45.5,42.2,30.07,West,270,0.0,0.0,88,0.00,,,0.00,VWS V14.01,2013-05-11 05:15:00,
2013-05-11 00:16:00,45.5,42.2,30.07,West,270,0.0,0.0,88,0.00,,,0.00,VWS V14.01,2013-05-11 05:16:00,
2013-05-11 00:17:00,45.5,42.2,30.07,West,270,0.0,0.0,88,0.00,,,0.00,VWS V14.01,2013-05-11 05:17:00,
2013-05-11 00:18:00,45.5,42.2,30.07,West,270,0.0,0.0,88,0.00,,,0.00,VWS V14.01,2013-05-11 05:18:00,
2013-05-11 00:19:00,45.5,42.2,30.06,West,270,0.0,0.0,88,0.00,,,0.00,VWS V14.01,2013-05-11 05:19:00,
2013-05-11 00:20:00,45.5,42.2,30.07,West,270,0.0,0.0,88,0.00,,,0.00,VWS V14.01,2013-05-11 05:20:00,
2013-05-11 00:21:00,45.5,42.2,30.07,West,270,0.0,0.0,88,0.00,,,0.00,VWS V14.01,2013-05-11 05:21:00,
2013-05-11 00:22:00,45.5,42.2,30.07,West,270,0.0,0.0,88,0.00,,,0.00,VWS V14.01,2013-05-11 05:22:00,
2013-05-11 00:23:00,45.5,42.2,30.06,West,270,0.0,0.0,88,0.00,,,0.00,VWS V14.01,2013-05-11 05:23:00,
2013-05-11 00:24:00,45.5,42.2,30.06,West,270,0.0,0.0,88,0.00,,,0.00,VWS V14.01,2013-05-11 05:24:00,
2013-05-11 00:25:00,45.5,42.2,30.07,West,270,0.0,0.0,88,0.00,,,0.00,VWS V14.01,2013-05-11 05:25:00,
2013-05-11 00:26:00,45.5,42.2,30.07,West,270,0.0,0.0,88,0.00,,,0.00,VWS V14.01,2013-05-11 05:26:00,
2013-05-11 00:27:00,45.5,42.2,30.07,West,270,0.0,0.0,88,0.00,,,0.00,VWS V14.01,2013-05-11 05:27:00,
2013-05-11 00:28:00,45.5,42.2,30.07,West,270,0.0,0.0,88,0.00,,,0.00,VWS V14.01,2013-05-11 05:28:00,
2013-05-11 00:29:00,45.5,42.2,30.07,West,270,0.0,0.0,88,0.00,,,0.00,VWS V14.01,2013-05-11 05:29:00,
2013-05-11 00:30:00,45.3,42.0,30.07,West,270,0.0,0.0,88,0.00,,,0.00,VWS V14.01,2013-05-11 05:30:00,
2013-05-11 00:31:00,45.3,42.0,30.07,West,270,0.0,0.0,88,0.00,,,0.00,VWS V14.01,2013-05-11 05:31:00,
2013-05-11 00:32:00,45.3,42.0,30.07,West,270,0.0,0.0,88,0.00,,,0.00,VWS V14.01,2013-05-11 05:32:00,
2013-05-11 00:33:00,45.3,42.0,30.07,West,270,0.0,0.0,88,0.00,,,0.00,VWS V14.01,2013-05-11 05:33:00,
2013-05-11 00:34:00,45.3,42.0,30.06,West,270,0.0,0.0,88,0.00,,,0.00,VWS V14.01,2013-05-11 05:34:00,
2013-05-11 00:35:00,45.3,42.0,30.06,West,270,0.0,0.0,88,0.00,,,0.00,VWS V14.01,2013-05-11 05:35:00,
2013-05-11 00:36:00,45.3,42.0,30.06,West,270,0.0,0.0,88,0.00,,,0.00,VWS V14.01,2013-05-11 05:36:00,
2013-05-11 00:37:00,45.3,42.0,30.06,WSW,248,0.0,0.0,88,0.00,,,0.00,VWS V14.01,2013-05-11 05:37:00,
2013-05-11 00:38:00,45.3,42.0,30.06,WSW,248,0.0,0.0,88,0.00,,,0.00,VWS V14.01,2013-05-11 05:38:00,
2013-05-11 00:39:00,45.3,42.0,30.07,WSW,248,0.4,0.4,88,0.00,,,0.00,VWS V14.01,2013-05-11 05:39:00,
2013-05-11 00:40:00,45.3,42.0,30.06,WSW,248,0.4,0.4,88,0.00,,,0.00,VWS V14.01,2013-05-11 05:40:00,
2013-05-11 00:41:00,45.3,42.0,30.06,WSW,248,0.4,0.4,88,0.00,,,0.00,VWS V14.01,2013-05-11 05:41:00,
2013-05-11 00:42:00,45.3,42.0,30.06,SW,225,0.6,0.6,88,0.00,,,0.00,VWS V14.01,2013-05-11 05:42:00,
2013-05-11 00:43:00,45.1,41.8,30.06,SW,225,0.0,0.6,88,0.00,,,0.00,VWS V14.01,2013-05-11 05:43:00,
2013-05-11 00:44:00,45.1,41.8,30.06,SW,225,0.0,0.0,88,0.00,,,0.00,VWS V14.01,2013-05-11 05:44:00,
2013-05-11 00:45:00,45.1,41.8,30.06,SW,225,0.0,0.0,88,0.00,,,0.00,VWS V14.01,2013-05-11 05:45:00,
2013-05-11 00:46:00,45.1,41.8,30.06,SW,225,0.0,0.0,88,0.00,,,0.00,VWS V14.01,2013-05-11 05:46:00,
2013-05-11 00:47:00,45.1,41.8,30.06,SW,225,0.0,0.0,88,0.00,,,0.00,VWS V14.01,2013-05-11 05:47:00,
2013-05-11 00:48:00,45.1,41.8,30.06,SW,225,0.0,0.0,88,0.00,,,0.00,VWS V14.01,2013-05-11 05:48:00,
2013-05-11 00:49:00,44.9,41.6,30.06,SW,225,0.0,0.0,88,0.00,,,0.00,VWS V14.01,2013-05-11 05:49:00,
2013-05-11 00:50:00,44.9,41.6,30.06,SW,225,0.0,0.0,88,0.00,,,0.00,VWS V14.01,2013-05-11 05:50:00,
2013-05-11 00:51:00,44.9,41.6,30.06,SW,225,0.0,0.0,88,0.00,,,0.00,VWS V14.01,2013-05-11 05:51:00,
2013-05-11 00:52:00,44.9,41.6,30.06,SW,225,0.0,0.0,88,0.00,,,0.00,VWS V14.01,2013-05-11 05:52:00,
2013-05-11 00:53:00,44.9,41.6,30.06,SW,225,0.0,0.0,88,0.00,,,0.00,VWS V14.01,2013-05-11 05:53:00,
2013-05-11 00:54:00,44.7,41.4,30.06,SW,225,0.0,0.0,88,0.00,,,0.00,VWS V14.01,2013-05-11 05:54:00,
2013-05-11 00:55:00,44.7,41.4,30.06,SW,225,0.0,0.0,88,0.00,,,0.00,VWS V14.01,2013-05-11 05:55:00,
2013-05-11 00:56:00,44.7,41.4,30.06,SW,225,0.0,0.0,88,0.00,,,0.00,VWS V14.01,2013-05-11 05:56:00,
2013-05-11 00:57:00,44.7,41.4,30.06,SW,225,0.0,0.0,88,0.00,,,0.00,VWS V14.01,2013-05-11 05:57:00,
2013-05-11 00:58:00,44.6,41.3,30.06,SW,225,0.0,0.0,88,0.00,,,0.00,VWS V14.01,2013-05-11 05:58:00,
2013-05-11 00:59:00,44.6,41.3,30.06,SW,225,0.0,0.0,88,0.00,,,0.00,VWS V14.01,2013-05-11 05:59:00,
2013-05-11 01:00:00,44.6,41.3,30.06,SW,225,0.0,0.0,88,0.00,,,0.00,VWS V14.01,2013-05-11 06:00:00,
2013-05-11 01:01:00,44.6,41.3,30.06,SW,225,0.0,0.0,88,0.00,,,0.00,VWS V14.01,2013-05-11 06:01:00,
2013-05-11 01:02:00,44.4,41.1,30.06,SW,225,0.0,0.0,88,0.00,,,0.00,VWS V14.01,2013-05-11 06:02:00,
2013-05-11 01:03:00,44.4,41.1,30.06,SW,225,0.0,0.0,88,0.00,,,0.00,VWS V14.01,2013-05-11 06:03:00,
2013-05-11 01:04:00,44.4,41.1,30.06,SW,225,0.0,0.0,88,0.00,,,0.00,VWS V14.01,2013-05-11 06:04:00,
2013-05-11 01:05:00,44.4,41.1,30.06,SW,225,0.0,0.0,88,0.00,,,0.00,VWS V14.01,2013-05-11 06:05:00,
2013-05-11 01:06:00,44.4,41.1,30.06,SW,225,0.0,0.0,88,0.00,,,0.00,VWS V14.01,2013-05-11 06:06:00,
2013-05-11 01:07:00,44.6,41.3,30.06,SW,225,0.0,0.0,88,0.00,,,0.00,VWS V14.01,2013-05-11 06:07:00,
2013-05-11 01:08:00,44.6,41.3,30.06,SW,225,0.0,0.0,88,0.00,,,0.00,VWS V14.01,2013-05-11 06:08:00,
2013-05-11 01:09:00,44.7,41.4,30.06,SW,225,0.2,0.2,88,0.00,,,0.00,VWS V14.01,2013-05-11 06:09:00,
2013-05-11 01:10:00,44.7,41.4,30.06,SW,225,0.2,0.2,88,0.00,,,0.00,VWS V14.01,2013-05-11 06:10:00,
2013-05-11 01:11:00,44.7,41.4,30.06,SW,225,0.2,0.2,88,0.00,,,0.00,VWS V14.01,2013-05-11 06:11:00,
2013-05-11 01:12:00,44.9,41.6,30.05,SW,225,0.0,0.0,88,0.00,,,0.00,VWS V14.01,2013-05-11 06:12:00,
2013-05-11 01:13:00,44.9,41.6,30.05,SW,225,0.0,0.0,88,0.00,,,0.00,VWS V14.01,2013-05-11 06:13:00,
2013-05-11 01:14:00,44.9,41.6,30.05,SW,225,0.0,0.0,88,0.00,,,0.00,VWS V14.01,2013-05-11 06:14:00,
2013-05-11 01:15:00,44.7,41.4,30.05,SW,225,0.0,0.0,88,0.00,,,0.00,VWS V14.01,2013-05-11 06:15:00,
2013-05-11 01:16:00,44.7,41.4,30.05,SW,225,0.0,0.0,88,0.00,,,0.00,VWS V14.01,2013-05-11 06:16:00,
2013-05-11 01:17:00,44.7,41.4,30.05,SW,225,0.0,0.0,88,0.00,,,0.00,VWS V14.01,2013-05-11 06:17:00,
2013-05-11 01:18:00,44.7,41.4,30.05,SW,225,0.0,0.0,88,0.00,,,0.00,VWS V14.01,2013-05-11 06:18:00,
2013-05-11 01:19:00,44.7,41.7,30.05,SW,225,0.6,0.6,89,0.00,,,0.00,VWS V14.01,2013-05-11 06:19:00,
2013-05-11 01:20:00,44.7,41.7,30.05,SW,225,0.6,0.6,89,0.00,,,0.00,VWS V14.01,2013-05-11 06:20:00,
2013-05-11 01:21:00,44.7,41.7,30.05,SW,225,0.6,0.6,89,0.00,,,0.00,VWS V14.01,2013-05-11 06:21:00,
2013-05-11 01:22:00,44.7,41.7,30.05,SW,225,0.0,0.6,89,0.00,,,0.00,VWS V14.01,2013-05-11 06:22:00,
2013-05-11 01:23:00,44.7,41.7,30.05,SW,225,0.0,0.0,89,0.00,,,0.00,VWS V14.01,2013-05-11 06:23:00,
2013-05-11 01:24:00,44.9,41.9,30.05,SW,225,0.8,0.8,89,0.00,,,0.00,VWS V14.01,2013-05-11 06:24:00,
2013-05-11 01:25:00,44.9,41.9,30.05,SW,225,0.8,0.8,89,0.00,,,0.00,VWS V14.01,2013-05-11 06:25:00,
2013-05-11 01:26:00,44.9,41.9,30.05,SW,225,0.8,0.8,89,0.00,,,0.00,VWS V14.01,2013-05-11 06:26:00,
2013-05-11 01:27:00,44.9,41.9,30.05,SW,225,0.0,0.0,89,0.00,,,0.00,VWS V14.01,2013-05-11 06:27:00,
2013-05-11 01:28:00,44.9,41.9,30.05,SW,225,1.5,1.5,89,0.00,,,0.00,VWS V14.01,2013-05-11 06:28:00,
2013-05-11 01:29:00,44.9,41.9,30.05,SW,225,1.5,1.5,89,0.00,,,0.00,VWS V14.01,2013-05-11 06:29:00,
2013-05-11 01:30:00,44.9,41.9,30.05,SW,225,2.9,2.9,89,0.00,,,0.00,VWS V14.01,2013-05-11 06:30:00,
2013-05-11 01:31:00,44.9,41.9,30.05,SW,225,2.9,2.9,89,0.00,,,0.00,VWS V14.01,2013-05-11 06:31:00,
2013-05-11 01:32:00,44.9,41.9,30.05,SW,225,0.0,2.9,89,0.00,,,0.00,VWS V14.01,2013-05-11 06:32:00,
2013-05-11 01:33:00,44.9,41.9,30.05,SW,225,0.0,0.0,89,0.00,,,0.00,VWS V14.01,2013-05-11 06:33:00,
2013-05-11 01:34:00,44.9,41.9,30.05,SW,225,3.3,3.3,89,0.00,,,0.00,VWS V14.01,2013-05-11 06:34:00,
2013-05-11 01:35:00,44.9,41.9,30.05,SW,225,3.3,3.3,89,0.00,,,0.00,VWS V14.01,2013-05-11 06:35:00,
2013-05-11 01:36:00,44.9,41.9,30.05,SW,225,3.3,3.3,89,0.00,,,0.00,VWS V14.01,2013-05-11 06:36:00,
2013-05-11 01:37:00,44.9,41.9,30.05,SSW,202,1.7,3.3,89,0.00,,,0.00,VWS V14.01,2013-05-11 06:37:00,
2013-05-11 01:38:00,44.9,41.9,30.05,SSW,202,1.7,1.7,89,0.00,,,0.00,VWS V14.01,2013-05-11 06:38:00,
2013-05-11 01:39:00,44.9,41.9,30.05,SSW,202,1.7,1.7,89,0.00,,,0.00,VWS V14.01,2013-05-11 06:39:00,
2013-05-11 01:40:00,44.9,41.9,30.05,SSW,202,1.7,1.7,89,0.00,,,0.00,VWS V14.01,2013-05-11 06:40:00,
2013-05-11 01:41:00,44.9,41.9,30.05,SSW,202,1.7,1.7,89,0.00,,,0.00,VWS V14.01,2013-05-11 06:41:00,
2013-05-11 01:42:00,44.9,41.9,30.04,SSW,202,2.2,2.2,89,0.00,,,0.00,VWS V14.01,2013-05-11 06:42:00,
2013-05-11 01:43:00,44.9,41.9,30.05,SSW,202,1.3,2.2,89,0.00,,,0.00,VWS V14.01,2013-05-11 06:43:00,
2013-05-11 01:44:00,44.9,41.9,30.05,SSW,202,1.3,1.3,89,0.00,,,0.00,VWS V14.01,2013-05-11 06:44:00,
2013-05-11 01:45:00,44.7,41.7,30.05,SSW,202,1.3,1.3,89,0.00,,,0.00,VWS V14.01,2013-05-11 06:45:00,
2013-05-11 01:46:00,44.7,41.7,30.05,SSW,202,1.3,1.3,89,0.00,,,0.00,VWS V14.01,2013-05-11 06:46:00,
2013-05-11 01:47:00,44.7,41.7,30.05,SSW,202,1.3,1.3,89,0.00,,,0.00,VWS V14.01,2013-05-11 06:47:00,
2013-05-11 01:48:00,44.6,41.6,30.05,SSW,202,1.1,1.3,89,0.00,,,0.00,VWS V14.01,2013-05-11 06:48:00,
2013-05-11 01:49:00,44.7,41.7,30.05,SSW,202,0.0,1.1,89,0.00,,,0.00,VWS V14.01,2013-05-11 06:49:00,
2013-05-11 01:50:00,44.7,41.7,30.05,SSW,202,0.0,0.0,89,0.00,,,0.00,VWS V14.01,2013-05-11 06:50:00,
2013-05-11 01:51:00,44.7,41.7,30.05,SSW,202,0.0,0.0,89,0.00,,,0.00,VWS V14.01,2013-05-11 06:51:00,
2013-05-11 01:52:00,44.7,41.7,30.05,SSW,202,0.6,0.6,89,0.00,,,0.00,VWS V14.01,2013-05-11 06:52:00,
2013-05-11 01:53:00,44.7,41.7,30.05,SSW,202,0.6,0.6,89,0.00,,,0.00,VWS V14.01,2013-05-11 06:53:00,
2013-05-11 01:54:00,44.9,41.9,30.05,SSW,202,0.8,0.8,89,0.00,,,0.00,VWS V14.01,2013-05-11 06:54:00,
2013-05-11 01:55:00,44.9,41.9,30.05,SSW,202,0.8,0.8,89,0.00,,,0.00,VWS V14.01,2013-05-11 06:55:00,
2013-05-11 01:56:00,44.9,41.9,30.05,SSW,202,0.8,0.8,89,0.00,,,0.00,VWS V14.01,2013-05-11 06:56:00,
2013-05-11 01:57:00,44.9,41.9,30.05,SSW,202,0.8,0.8,89,0.00,,,0.00,VWS V14.01,2013-05-11 06:57:00,
2013-05-11 01:58:00,44.9,41.9,30.05,SSW,202,0.8,0.8,89,0.00,,,0.00,VWS V14.01,2013-05-11 06:58:00,
2013-05-11 01:59:00,44.9,41.9,30.05,SSW,202,0.8,0.8,89,0.00,,,0.00,VWS V14.01,2013-05-11 06:59:00,
2013-05-11 02:00:00,44.9,41.9,30.05,SSW,202,0.8,0.8,89,0.00,,,0.00,VWS V14.01,2013-05-11 07:00:00,
2013-05-11 02:01:00,44.9,41.9,30.05,SSW,202,0.8,0.8,89,0.00,,,0.00,VWS V14.01,2013-05-11 07:01:00,
2013-05-11 02:02:00,45.1,42.1,30.05,SSW,202,0.8,0.8,89,0.00,,,0.00,VWS V14.01,2013-05-11 07:02:00,
2013-05-11 02:03:00,45.1,42.1,30.05,SSW,202,0.8,0.8,89,0.00,,,0.00,VWS V14.01,2013-05-11 07:03:00,
2013-05-11 02:04:00,45.1,42.1,30.04,SSW,202,0.0,0.8,89,0.00,,,0.00,VWS V14.01,2013-05-11 07:04:00,
2013-05-11 02:05:00,45.1,42.1,30.04,SSW,202,0.0,0.0,89,0.00,,,0.00,VWS V14.01,2013-05-11 07:05:00,
2013-05-11 02:06:00,45.1,42.1,30.04,SSW,202,0.0,0.0,89,0.00,,,0.00,VWS V14.01,2013-05-11 07:06:00,
2013-05-11 02:07:00,45.1,42.1,30.04,SSW,202,3.1,3.1,89,0.00,,,0.00,VWS V14.01,2013-05-11 07:07:00,
2013-05-11 02:08:00,45.1,42.1,30.04,SSW,202,3.1,3.1,89,0.00,,,0.00,VWS V14.01,2013-05-11 07:08:00,
2013-05-11 02:09:00,45.3,42.3,30.04,SSW,202,2.9,3.1,89,0.00,,,0.00,VWS V14.01,2013-05-11 07:09:00,
2013-05-11 02:10:00,45.3,42.3,30.04,SSW,202,2.9,2.9,89,0.00,,,0.00,VWS V14.01,2013-05-11 07:10:00,
2013-05-11 02:11:00,45.3,42.3,30.04,SSW,202,2.9,2.9,89,0.00,,,0.00,VWS V14.01,2013-05-11 07:11:00,
2013-05-11 02:12:00,45.3,42.3,30.04,SSW,202,2.4,2.4,89,0.00,,,0.00,VWS V14.01,2013-05-11 07:12:00,
2013-05-11 02:13:00,45.5,42.5,30.04,SSW,202,1.7,2.4,89,0.00,,,0.00,VWS V14.01,2013-05-11 07:13:00,
2013-05-11 02:14:00,45.5,42.5,30.04,SSW,202,1.7,1.7,89,0.00,,,0.00,VWS V14.01,2013-05-11 07:14:00,
2013-05-11 02:15:00,45.5,42.5,30.04,SSW,202,2.2,2.2,89,0.00,,,0.00,VWS V14.01,2013-05-11 07:15:00,
2013-05-11 02:16:00,45.5,42.5,30.04,SSW,202,2.2,2.2,89,0.00,,,0.00,VWS V14.01,2013-05-11 07:16:00,
2013-05-11 02:17:00,45.3,42.3,30.04,SSW,202,2.4,2.4,89,0.00,,,0.00,VWS V14.01,2013-05-11 07:17:00,
2013-05-11 02:18:00,45.3,42.3,30.04,SSW,202,2.4,2.4,89,0.00,,,0.00,VWS V14.01,2013-05-11 07:18:00,
2013-05-11 02:19:00,45.3,42.3,30.04,SSW,202,3.1,3.1,89,0.00,,,0.00,VWS V14.01,2013-05-11 07:19:00,
2013-05-11 02:20:00,45.5,42.5,30.03,SSW,202,3.1,3.1,89,0.00,,,0.00,VWS V14.01,2013-05-11 07:20:00,
2013-05-11 02:21:00,45.5,42.5,30.03,SSW,202,3.1,3.1,89,0.00,,,0.00,VWS V14.01,2013-05-11 07:21:00,
2013-05-11 02:22:00,45.5,42.5,30.03,SSW,202,0.8,3.1,89,0.00,,,0.00,VWS V14.01,2013-05-11 07:22:00,
2013-05-11 02:23:00,45.5,42.5,30.03,SSW,202,0.8,0.8,89,0.00,,,0.00,VWS V14.01,2013-05-11 07:23:00,
2013-05-11 02:24:00,45.5,42.5,30.03,SSW,202,0.8,0.8,89,0.00,,,0.00,VWS V14.01,2013-05-11 07:24:00,
2013-05-11 02:25:00,45.5,42.5,30.03,SSW,202,0.8,0.8,89,0.00,,,0.00,VWS V14.01,2013-05-11 07:25:00,
2013-05-11 02:26:00,45.5,42.5,30.03,SSW,202,0.8,0.8,89,0.00,,,0.00,VWS V14.01,2013-05-11 07:26:00,
2013-05-11 02:27:00,45.3,42.3,30.03,SSW,202,1.3,1.3,89,0.00,,,0.00,VWS V14.01,2013-05-11 07:27:00,
2013-05-11 02:28:00,45.3,42.3,30.03,SSW,202,0.8,1.3,89,0.00,,,0.00,VWS V14.01,2013-05-11 07:28:00,
2013-05-11 02:29:00,45.3,42.3,30.03,SSW,202,0.8,0.8,89,0.00,,,0.00,VWS V14.01,2013-05-11 07:29:00,
2013-05-11 02:30:00,45.3,42.3,30.03,SSW,202,1.7,1.7,89,0.00,,,0.00,VWS V14.01,2013-05-11 07:30:00,
2013-05-11 02:31:00,45.3,42.3,30.03,SSW,202,1.7,1.7,89,0.00,,,0.00,VWS V14.01,2013-05-11 07:31:00,
2013-05-11 02:32:00,45.5,42.5,30.03,SSW,202,2.4,2.4,89,0.00,,,0.00,VWS V14.01,2013-05-11 07:32:00,
2013-05-11 02:33:00,45.5,42.5,30.03,SSW,202,2.4,2.4,89,0.00,,,0.00,VWS V14.01,2013-05-11 07:33:00,
2013-05-11 02:34:00,45.5,42.5,30.03,SSW,202,2.4,2.4,89,0.00,,,0.00,VWS V14.01,2013-05-11 07:34:00,
2013-05-11 02:35:00,45.5,42.5,30.03,SSW,202,2.4,2.4,89,0.00,,,0.00,VWS V14.01,2013-05-11 07:35:00,
2013-05-11 02:36:00,45.5,42.5,30.03,SSW,202,2.4,2.4,89,0.00,,,0.00,VWS V14.01,2013-05-11 07:36:00,
2013-05-11 02:37:00,45.5,42.5,30.03,SSW,202,3.3,3.3,89,0.00,,,0.00,VWS V14.01,2013-05-11 07:37:00,
2013-05-11 02:38:00,45.5,42.5,30.03,SSW,202,3.3,3.3,89,0.00,,,0.00,VWS V14.01,2013-05-11 07:38:00,
2013-05-11 02:39:00,45.3,42.3,30.03,SSW,202,2.4,3.3,89,0.00,,,0.00,VWS V14.01,2013-05-11 07:39:00,
2013-05-11 02:40:00,45.3,42.3,30.03,SSW,202,2.4,2.4,89,0.00,,,0.00,VWS V14.01,2013-05-11 07:40:00,
2013-05-11 02:41:00,45.3,42.3,30.03,SSW,202,2.4,2.4,89,0.00,,,0.00,VWS V14.01,2013-05-11 07:41:00,
2013-05-11 02:42:00,45.3,42.3,30.03,SSW,202,0.8,0.8,89,0.00,,,0.00,VWS V14.01,2013-05-11 07:42:00,
2013-05-11 02:43:00,45.3,42.3,30.03,SSW,202,2.6,2.6,89,0.00,,,0.00,VWS V14.01,2013-05-11 07:43:00,
2013-05-11 02:44:00,45.3,42.3,30.03,SSW,202,2.6,2.6,89,0.00,,,0.00,VWS V14.01,2013-05-11 07:44:00,
2013-05-11 02:45:00,45.3,42.3,30.03,SW,225,2.4,2.6,89,0.00,,,0.00,VWS V14.01,2013-05-11 07:45:00,
2013-05-11 02:46:00,45.3,42.3,30.03,SW,225,2.4,2.4,89,0.00,,,0.00,VWS V14.01,2013-05-11 07:46:00,
2013-05-11 02:47:00,45.3,42.3,30.03,SW,225,2.2,2.4,89,0.00,,,0.00,VWS V14.01,2013-05-11 07:47:00,
2013-05-11 02:48:00,45.3,42.3,30.03,SW,225,2.2,2.2,89,0.00,,,0.00,VWS V14.01,2013-05-11 07:48:00,
2013-05-11 02:49:00,45.3,42.3,30.02,SW,225,2.2,2.2,89,0.00,,,0.00,VWS V14.01,2013-05-11 07:49:00,
2013-05-11 02:50:00,45.3,42.3,30.02,SW,225,2.2,2.2,89,0.00,,,0.00,VWS V14.01,2013-05-11 07:50:00,
2013-05-11 02:51:00,45.3,42.3,30.02,SW,225,2.2,2.2,89,0.00,,,0.00,VWS V14.01,2013-05-11 07:51:00,
2013-05-11 02:52:00,45.3,42.3,30.02,SW,225,1.7,2.2,89,0.00,,,0.00,VWS V14.01,2013-05-11 07:52:00,
2013-05-11 02:53:00,45.3,42.3,30.02,SW,225,1.7,1.7,89,0.00,,,0.00,VWS V14.01,2013-05-11 07:53:00,
2013-05-11 02:54:00,45.3,42.3,30.03,SW,225,1.1,1.7,89,0.00,,,0.00,VWS V14.01,2013-05-11 07:54:00,
2013-05-11 02:55:00,45.3,42.3,30.02,SW,225,1.1,1.1,89,0.00,,,0.00,VWS V14.01,2013-05-11 07:55:00,
2013-05-11 02:56:00,45.3,42.3,30.02,SW,225,1.1,1.1,89,0.00,,,0.00,VWS V14.01,2013-05-11 07:56:00,
2013-05-11 02:57:00,45.3,42.3,30.02,SW,225,4.2,4.2,89,0.00,,,0.00,VWS V14.01,2013-05-11 07:57:00,
2013-05-11 02:58:00,45.3,42.3,30.02,SW,225,4.4,4.4,89,0.00,,,0.00,VWS V14.01,2013-05-11 07:58:00,
2013-05-11 02:59:00,45.3,42.3,30.02,SW,225,4.4,4.4,89,0.00,,,0.00,VWS V14.01,2013-05-11 07:59:00,
2013-05-11 03:00:00,45.3,42.3,30.02,SW,225,4.4,4.4,89,0.00,,,0.00,VWS V14.01,2013-05-11 08:00:00,
2013-05-11 03:01:00,45.3,42.3,30.02,SW,225,4.4,4.4,89,0.00,,,0.00,VWS V14.01,2013-05-11 08:01:00,
2013-05-11 03:02:00,45.3,42.3,30.02,SSW,202,5.1,5.1,89,0.00,,,0.00,VWS V14.01,2013-05-11 08:02:00,
2013-05-11 03:03:00,45.5,42.5,30.02,SSW,202,5.1,5.1,89,0.00,,,0.00,VWS V14.01,2013-05-11 08:03:00,
2013-05-11 03:04:00,45.5,42.5,30.02,SSW,202,4.0,5.1,89,0.00,,,0.00,VWS V14.01,2013-05-11 08:04:00,
2013-05-11 03:05:00,45.5,42.5,30.02,SSW,202,4.0,4.0,89,0.00,,,0.00,VWS V14.01,2013-05-11 08:05:00,
2013-05-11 03:06:00,45.5,42.5,30.02,SSW,202,4.0,4.0,89,0.00,,,0.00,VWS V14.01,2013-05-11 08:06:00,
2013-05-11 03:07:00,45.5,42.5,30.02,SSW,202,3.1,4.0,89,0.00,,,0.00,VWS V14.01,2013-05-11 08:07:00,
2013-05-11 03:08:00,45.5,42.5,30.02,SSW,202,3.1,3.1,89,0.00,,,0.00,VWS V14.01,2013-05-11 08:08:00,
2013-05-11 03:09:00,45.5,42.5,30.02,SW,225,4.6,4.6,89,0.00,,,0.00,VWS V14.01,2013-05-11 08:09:00,
2013-05-11 03:10:00,45.5,42.5,30.02,SW,225,4.6,4.6,89,0.00,,,0.00,VWS V14.01,2013-05-11 08:10:00,
2013-05-11 03:11:00,45.5,42.5,30.02,SW,225,4.6,4.6,89,0.00,,,0.00,VWS V14.01,2013-05-11 08:11:00,
2013-05-11 03:12:00,45.6,42.5,30.03,SW,225,3.8,3.8,89,0.00,,,0.00,VWS V14.01,2013-05-11 08:12:00,
2013-05-11 03:13:00,45.6,42.8,30.02,SW,225,3.5,3.8,90,0.00,,,0.00,VWS V14.01,2013-05-11 08:13:00,
2013-05-11 03:14:00,45.6,42.8,30.03,SW,225,3.5,3.5,90,0.00,,,0.00,VWS V14.01,2013-05-11 08:14:00,
2013-05-11 03:15:00,45.6,42.5,30.02,SSW,202,3.5,3.5,89,0.00,,,0.00,VWS V14.01,2013-05-11 08:15:00,
2013-05-11 03:16:00,45.6,42.5,30.02,SSW,202,3.5,3.5,89,0.00,,,0.00,VWS V14.01,2013-05-11 08:16:00,
2013-05-11 03:17:00,45.5,42.7,30.02,SW,225,2.9,3.5,90,0.00,,,0.00,VWS V14.01,2013-05-11 08:17:00,
2013-05-11 03:18:00,45.5,42.7,30.03,SW,225,2.9,2.9,90,0.00,,,0.00,VWS V14.01,2013-05-11 08:18:00,
2013-05-11 03:19:00,45.5,42.7,30.03,SW,225,3.8,3.8,90,0.00,,,0.00,VWS V14.01,2013-05-11 08:19:00,
2013-05-11 03:20:00,45.5,42.7,30.02,SW,225,3.8,3.8,90,0.00,,,0.00,VWS V14.01,2013-05-11 08:20:00,
2013-05-11 03:21:00,45.5,42.7,30.02,SW,225,3.8,3.8,90,0.00,,,0.00,VWS V14.01,2013-05-11 08:21:00,
2013-05-11 03:22:00,45.5,42.7,30.02,SW,225,4.4,4.4,90,0.00,,,0.00,VWS V14.01,2013-05-11 08:22:00,
2013-05-11 03:23:00,45.5,42.7,30.02,SW,225,4.4,4.4,90,0.00,,,0.00,VWS V14.01,2013-05-11 08:23:00,
2013-05-11 03:24:00,45.5,42.7,30.02,SW,225,4.0,4.4,90,0.00,,,0.00,VWS V14.01,2013-05-11 08:24:00,
2013-05-11 03:25:00,45.5,42.7,30.02,SW,225,4.0,4.0,90,0.00,,,0.00,VWS V14.01,2013-05-11 08:25:00,
2013-05-11 03:26:00,45.5,42.7,30.02,SW,225,4.0,4.0,90,0.00,,,0.00,VWS V14.01,2013-05-11 08:26:00,
2013-05-11 03:27:00,45.5,42.7,30.02,SW,225,4.0,4.0,90,0.00,,,0.00,VWS V14.01,2013-05-11 08:27:00,
2013-05-11 03:28:00,45.5,42.7,30.02,SSW,202,6.2,6.2,90,0.00,,,0.00,VWS V14.01,2013-05-11 08:28:00,
2013-05-11 03:29:00,45.5,42.7,30.02,SSW,202,6.2,6.2,90,0.00,,,0.00,VWS V14.01,2013-05-11 08:29:00,
2013-05-11 03:30:00,45.5,42.7,30.02,SSW,202,4.2,6.2,90,0.00,,,0.00,VWS V14.01,2013-05-11 08:30:00,
2013-05-11 03:31:00,45.5,42.7,30.02,SSW,202,4.2,4.2,90,0.00,,,0.00,VWS V14.01,2013-05-11 08:31:00,
2013-05-11 03:32:00,45.3,42.5,30.02,SSW,202,3.8,4.2,90,0.00,,,0.00,VWS V14.01,2013-05-11 08:32:00,
2013-05-11 03:33:00,45.3,42.5,30.02,SSW,202,3.8,3.8,90,0.00,,,0.00,VWS V14.01,2013-05-11 08:33:00,
2013-05-11 03:34:00,45.3,42.5,30.02,SSW,202,4.4,4.4,90,0.00,,,0.00,VWS V14.01,2013-05-11 08:34:00,
2013-05-11 03:35:00,45.3,42.5,30.02,SSW,202,4.4,4.4,90,0.00,,,0.00,VWS V14.01,2013-05-11 08:35:00,
2013-05-11 03:36:00,45.3,42.5,30.02,SSW,202,4.4,4.4,90,0.00,,,0.00,VWS V14.01,2013-05-11 08:36:00,
2013-05-11 03:37:00,45.3,42.5,30.02,SSW,202,3.8,4.4,90,0.00,,,0.00,VWS V14.01,2013-05-11 08:37:00,
2013-05-11 03:38:00,45.3,42.5,30.02,SSW,202,3.8,3.8,90,0.00,,,0.00,VWS V14.01,2013-05-11 08:38:00,
2013-05-11 03:39:00,45.3,42.5,30.02,SSW,202,5.1,5.1,90,0.00,,,0.00,VWS V14.01,2013-05-11 08:39:00,
2013-05-11 03:40:00,45.3,42.5,30.02,SSW,202,5.1,5.1,90,0.00,,,0.00,VWS V14.01,2013-05-11 08:40:00,
2013-05-11 03:41:00,45.3,42.5,30.02,SSW,202,5.1,5.1,90,0.00,,,0.00,VWS V14.01,2013-05-11 08:41:00,
2013-05-11 03:42:00,45.3,42.5,30.02,SW,225,2.0,2.0,90,0.00,,,0.00,VWS V14.01,2013-05-11 08:42:00,
2013-05-11 03:43:00,45.1,42.3,30.02,SW,225,3.8,3.8,90,0.00,,,0.00,VWS V14.01,2013-05-11 08:43:00,
2013-05-11 03:44:00,45.1,42.3,30.02,SW,225,3.8,3.8,90,0.00,,,0.00,VWS V14.01,2013-05-11 08:44:00,
2013-05-11 03:45:00,45.1,42.3,30.02,SSW,202,2.6,3.8,90,0.00,,,0.00,VWS V14.01,2013-05-11 08:45:00,
2013-05-11 03:46:00,45.1,42.3,30.02,SSW,202,2.6,2.6,90,0.00,,,0.00,VWS V14.01,2013-05-11 08:46:00,
2013-05-11 03:47:00,45.1,42.3,30.02,SSW,202,2.4,2.6,90,0.00,,,0.00,VWS V14.01,2013-05-11 08:47:00,
2013-05-11 03:48:00,45.1,42.3,30.02,SSW,202,2.4,2.4,90,0.00,,,0.00,VWS V14.01,2013-05-11 08:48:00,
2013-05-11 03:49:00,45.1,42.3,30.02,SSW,202,3.8,3.8,90,0.00,,,0.00,VWS V14.01,2013-05-11 08:49:00,
2013-05-11 03:50:00,45.1,42.3,30.02,SSW,202,3.8,3.8,90,0.00,,,0.00,VWS V14.01,2013-05-11 08:50:00,
2013-05-11 03:51:00,45.1,42.3,30.02,SSW,202,3.8,3.8,90,0.00,,,0.00,VWS V14.01,2013-05-11 08:51:00,
2013-05-11 03:52:00,45.1,42.3,30.01,SSW,202,3.5,3.8,90,0.00,,,0.00,VWS V14.01,2013-05-11 08:52:00,
2013-05-11 03:53:00,45.1,42.3,30.02,SSW,202,3.5,3.5,90,0.00,,,0.00,VWS V14.01,2013-05-11 08:53:00,
2013-05-11 03:54:00,45.1,42.3,30.01,SSW,202,6.7,6.7,90,0.00,,,0.00,VWS V14.01,2013-05-11 08:54:00,
2013-05-11 03:55:00,45.1,42.3,30.02,SSW,202,6.7,6.7,90,0.00,,,0.00,VWS V14.01,2013-05-11 08:55:00,
2013-05-11 03:56:00,45.1,42.3,30.02,SSW,202,6.7,6.7,90,0.00,,,0.00,VWS V14.01,2013-05-11 08:56:00,
2013-05-11 03:57:00,45.1,42.3,30.01,SSW,202,6.9,6.9,90,0.00,,,0.00,VWS V14.01,2013-05-11 08:57:00,
2013-05-11 03:58:00,45.3,42.5,30.01,SSW,202,6.2,6.9,90,0.00,,,0.00,VWS V14.01,2013-05-11 08:58:00,
2013-05-11 03:59:00,45.3,42.5,30.02,SSW,202,6.2,6.2,90,0.00,,,0.00,VWS V14.01,2013-05-11 08:59:00,
2013-05-11 04:00:00,45.3,42.5,30.02,SSW,202,6.2,6.2,90,0.00,,,0.00,VWS V14.01,2013-05-11 09:00:00,
2013-05-11 04:01:00,45.3,42.5,30.02,SSW,202,6.2,6.2,90,0.00,,,0.00,VWS V14.01,2013-05-11 09:01:00,
2013-05-11 04:02:00,45.3,42.5,30.01,SSW,202,3.3,6.2,90,0.00,,,0.00,VWS V14.01,2013-05-11 09:02:00,
2013-05-11 04:03:00,45.5,42.7,30.01,SSW,202,3.3,3.3,90,0.00,,,0.00,VWS V14.01,2013-05-11 09:03:00,
2013-05-11 04:04:00,45.5,42.7,30.01,SSW,202,4.4,4.4,90,0.00,,,0.00,VWS V14.01,2013-05-11 09:04:00,
2013-05-11 04:05:00,45.5,42.7,30.01,SSW,202,4.4,4.4,90,0.00,,,0.00,VWS V14.01,2013-05-11 09:05:00,
2013-05-11 04:06:00,45.5,42.7,30.01,SSW,202,4.4,4.4,90,0.00,,,0.00,VWS V14.01,2013-05-11 09:06:00,
2013-05-11 04:07:00,45.5,42.7,30.01,SSW,202,5.8,5.8,90,0.00,,,0.00,VWS V14.01,2013-05-11 09:07:00,
2013-05-11 04:08:00,45.5,42.7,30.01,SSW,202,5.8,5.8,90,0.00,,,0.00,VWS V14.01,2013-05-11 09:08:00,
2013-05-11 04:09:00,45.3,42.5,30.01,SSW,202,5.1,5.8,90,0.00,,,0.00,VWS V14.01,2013-05-11 09:09:00,
2013-05-11 04:10:00,45.3,42.5,30.01,SSW,202,5.1,5.1,90,0.00,,,0.00,VWS V14.01,2013-05-11 09:10:00,
2013-05-11 04:11:00,45.3,42.5,30.01,SSW,202,5.1,5.1,90,0.00,,,0.00,VWS V14.01,2013-05-11 09:11:00,
2013-05-11 04:12:00,45.3,42.5,30.01,SSW,202,6.2,6.2,90,0.00,,,0.00,VWS V14.01,2013-05-11 09:12:00,
2013-05-11 04:13:00,45.3,42.5,30.01,SSW,202,4.6,6.2,90,0.00,,,0.00,VWS V14.01,2013-05-11 09:13:00,
2013-05-11 04:14:00,45.3,42.5,30.01,SSW,202,4.6,4.6,90,0.00,,,0.00,VWS V14.01,2013-05-11 09:14:00,
2013-05-11 04:15:00,45.3,42.5,30.01,SSW,202,7.1,7.1,90,0.00,,,0.00,VWS V14.01,2013-05-11 09:15:00,
2013-05-11 04:16:00,45.3,42.5,30.01,SSW,202,7.1,7.1,90,0.00,,,0.00,VWS V14.01,2013-05-11 09:16:00,
2013-05-11 04:17:00,45.3,42.5,30.01,SSW,202,7.1,7.1,90,0.00,,,0.00,VWS V14.01,2013-05-11 09:17:00,
2013-05-11 04:18:00,45.3,42.5,30.01,SSW,202,7.1,7.1,90,0.00,,,0.00,VWS V14.01,2013-05-11 09:18:00,
2013-05-11 04:19:00,45.5,42.7,30.01,SSW,202,7.1,7.1,90,0.00,,,0.00,VWS V14.01,2013-05-11 09:19:00,
2013-05-11 04:20:00,45.5,42.7,30.01,SSW,202,7.1,7.1,90,0.00,,,0.00,VWS V14.01,2013-05-11 09:20:00,
2013-05-11 04:21:00,45.5,42.7,30.01,SSW,202,7.1,7.1,90,0.00,,,0.06,VWS V14.01,2013-05-11 09:21:00,
2013-05-11 04:22:00,45.5,42.7,30.01,SSW,202,5.3,7.1,90,0.00,,,0.00,VWS V14.01,2013-05-11 09:22:00,
2013-05-11 04:23:00,45.5,42.7,30.01,SSW,202,5.3,5.3,90,0.00,,,0.00,VWS V14.01,2013-05-11 09:23:00,
2013-05-11 04:24:00,45.6,42.8,30.01,SSW,202,5.3,5.3,90,0.00,,,0.00,VWS V14.01,2013-05-11 09:24:00,
2013-05-11 04:25:00,45.6,42.8,30.01,SSW,202,5.3,5.3,90,0.00,,,0.00,VWS V14.01,2013-05-11 09:25:00,
2013-05-11 04:26:00,45.6,42.8,30.01,SSW,202,5.3,5.3,90,0.00,,,0.00,VWS V14.01,2013-05-11 09:26:00,
2013-05-11 04:27:00,45.6,42.8,30.01,SSW,202,5.5,5.5,90,0.00,,,0.00,VWS V14.01,2013-05-11 09:27:00,
2013-05-11 04:28:00,45.6,42.8,30.00,SSW,202,8.0,8.0,90,0.00,,,0.00,VWS V14.01,2013-05-11 09:28:00,
2013-05-11 04:29:00,45.6,42.8,30.00,SSW,202,8.0,8.0,90,0.00,,,0.00,VWS V14.01,2013-05-11 09:29:00,
2013-05-11 04:30:00,45.6,42.8,30.01,SSW,202,6.2,8.0,90,0.00,,,0.00,VWS V14.01,2013-05-11 09:30:00,
2013-05-11 04:31:00,45.6,42.8,30.01,SSW,202,6.2,6.2,90,0.00,,,0.00,VWS V14.01,2013-05-11 09:31:00,
2013-05-11 04:32:00,45.6,42.8,30.01,SSW,202,5.3,6.2,90,0.00,,,0.00,VWS V14.01,2013-05-11 09:32:00,
2013-05-11 04:33:00,45.6,42.8,30.00,SSW,202,5.3,5.3,90,0.00,,,0.00,VWS V14.01,2013-05-11 09:33:00,
2013-05-11 04:34:00,45.6,42.8,30.01,SSW,202,6.4,6.4,90,0.00,,,0.00,VWS V14.01,2013-05-11 09:34:00,
2013-05-11 04:35:00,45.6,42.8,30.01,SSW,202,6.4,6.4,90,0.00,,,0.00,VWS V14.01,2013-05-11 09:35:00,
2013-05-11 04:36:00,45.6,42.8,30.01,SSW,202,6.4,6.4,90,0.00,,,0.00,VWS V14.01,2013-05-11 09:36:00,
2013-05-11 04:37:00,46.0,43.2,30.01,SSW,202,4.6,6.4,90,0.00,,,0.00,VWS V14.01,2013-05-11 09:37:00,
2013-05-11 04:38:00,46.0,43.2,30.01,SSW,202,4.6,4.6,90,0.00,,,0.00,VWS V14.01,2013-05-11 09:38:00,
2013-05-11 04:39:00,45.8,43.0,30.01,SSW,202,5.8,5.8,90,0.00,,,0.00,VWS V14.01,2013-05-11 09:39:00,
2013-05-11 04:40:00,45.8,43.0,30.00,SSW,202,5.8,5.8,90,0.00,,,0.00,VWS V14.01,2013-05-11 09:40:00,
2013-05-11 04:41:00,45.8,43.0,30.00,SSW,202,5.8,5.8,90,0.00,,,0.00,VWS V14.01,2013-05-11 09:41:00,
2013-05-11 04:42:00,45.6,42.8,30.00,SSW,202,5.8,5.8,90,0.00,,,0.00,VWS V14.01,2013-05-11 09:42:00,
2013-05-11 04:43:00,45.8,43.0,30.00,SSW,202,8.0,8.0,90,0.00,,,0.00,VWS V14.01,2013-05-11 09:43:00,
2013-05-11 04:44:00,45.8,43.0,30.00,SSW,202,8.0,8.0,90,0.00,,,0.00,VWS V14.01,2013-05-11 09:44:00,
2013-05-11 04:45:00,46.0,43.2,30.00,SSW,202,4.4,8.0,90,0.00,,,0.00,VWS V14.01,2013-05-11 09:45:00,
2013-05-11 04:46:00,46.0,43.2,30.00,SSW,202,4.4,4.4,90,0.00,,,0.00,VWS V14.01,2013-05-11 09:46:00,
2013-05-11 04:47:00,46.0,43.2,30.00,SSW,202,2.2,4.4,90,0.00,,,0.00,VWS V14.01,2013-05-11 09:47:00,
2013-05-11 04:48:00,46.0,43.2,30.00,SSW,202,2.2,2.2,90,0.00,,,0.00,VWS V14.01,2013-05-11 09:48:00,
2013-05-11 04:49:00,46.0,43.2,30.00,SSW,202,2.2,2.2,90,0.00,,,0.00,VWS V14.01,2013-05-11 09:49:00,
2013-05-11 04:50:00,46.0,43.2,30.00,SSW,202,2.9,2.9,90,0.00,,,0.00,VWS V14.01,2013-05-11 09:50:00,
2013-05-11 04:51:00,46.0,43.2,30.00,SSW,202,2.9,2.9,90,0.00,,,0.00,VWS V14.01,2013-05-11 09:51:00,
2013-05-11 04:52:00,46.0,43.2,30.00,SSW,202,4.4,4.4,90,0.00,,,0.00,VWS V14.01,2013-05-11 09:52:00,
2013-05-11 04:53:00,46.0,43.2,30.00,SSW,202,4.4,4.4,90,0.00,,,0.00,VWS V14.01,2013-05-11 09:53:00,
2013-05-11 04:54:00,46.0,43.2,30.00,SSW,202,1.7,4.4,90,0.00,,,0.00,VWS V14.01,2013-05-11 09:54:00,
2013-05-11 04:55:00,46.0,43.2,30.00,SSW,202,1.7,1.7,90,0.00,,,0.00,VWS V14.01,2013-05-11 09:55:00,
2013-05-11 04:56:00,46.0,43.2,30.00,SSW,202,1.7,1.7,90,0.00,,,0.00,VWS V14.01,2013-05-11 09:56:00,
2013-05-11 04:57:00,46.0,43.2,30.00,SSW,202,6.4,6.4,90,0.00,,,0.00,VWS V14.01,2013-05-11 09:57:00,
2013-05-11 04:58:00,46.0,43.2,30.00,SSW,202,4.4,6.4,90,0.00,,,0.00,VWS V14.01,2013-05-11 09:58:00,
2013-05-11 04:59:00,46.0,43.2,30.00,SSW,202,4.4,4.4,90,0.00,,,0.00,VWS V14.01,2013-05-11 09:59:00,
2013-05-11 05:00:00,46.0,43.2,30.00,SSW,202,4.4,4.4,90,0.00,,,0.00,VWS V14.01,2013-05-11 10:00:00,
2013-05-11 05:01:00,46.0,43.2,30.00,SSW,202,4.4,4.4,90,0.00,,,0.00,VWS V14.01,2013-05-11 10:01:00,
2013-05-11 05:02:00,46.2,43.4,30.00,SSW,202,8.2,8.2,90,0.00,,,0.00,VWS V14.01,2013-05-11 10:02:00,
2013-05-11 05:03:00,46.2,43.4,30.00,SSW,202,8.2,8.2,90,0.00,,,0.00,VWS V14.01,2013-05-11 10:03:00,
2013-05-11 05:04:00,46.2,43.4,30.00,SW,225,8.0,8.2,90,0.00,,,0.00,VWS V14.01,2013-05-11 10:04:00,
2013-05-11 05:05:00,46.2,43.4,30.00,SW,225,8.0,8.0,90,0.00,,,0.00,VWS V14.01,2013-05-11 10:05:00,
2013-05-11 05:06:00,46.2,43.4,30.00,SW,225,8.0,8.0,90,0.00,,,0.00,VWS V14.01,2013-05-11 10:06:00,
2013-05-11 05:07:00,46.4,43.6,30.00,SW,225,6.0,8.0,90,0.00,,,0.00,VWS V14.01,2013-05-11 10:07:00,
2013-05-11 05:08:00,46.4,43.6,30.00,SW,225,6.0,6.0,90,0.00,,,0.00,VWS V14.01,2013-05-11 10:08:00,
2013-05-11 05:09:00,46.5,43.7,30.00,SW,225,5.5,6.0,90,0.00,,,0.00,VWS V14.01,2013-05-11 10:09:00,
2013-05-11 05:10:00,46.5,43.7,30.00,SW,225,5.5,5.5,90,0.00,,,0.00,VWS V14.01,2013-05-11 10:10:00,
2013-05-11 05:11:00,46.5,43.7,30.00,SW,225,5.5,5.5,90,0.00,,,0.00,VWS V14.01,2013-05-11 10:11:00,
2013-05-11 05:12:00,46.5,43.7,30.00,SW,225,4.4,4.4,90,0.00,,,0.00,VWS V14.01,2013-05-11 10:12:00,
2013-05-11 05:13:00,46.5,43.7,29.99,SSW,202,6.9,6.9,90,0.00,,,0.00,VWS V14.01,2013-05-11 10:13:00,
2013-05-11 05:14:00,46.5,43.7,30.00,SSW,202,6.9,6.9,90,0.00,,,0.00,VWS V14.01,2013-05-11 10:14:00,
2013-05-11 05:15:00,46.7,43.9,30.00,SSW,202,6.4,6.9,90,0.00,,,0.00,VWS V14.01,2013-05-11 10:15:00,
2013-05-11 05:16:00,46.7,43.9,30.00,SSW,202,6.4,6.4,90,0.00,,,0.00,VWS V14.01,2013-05-11 10:16:00,
2013-05-11 05:17:00,46.7,43.9,29.99,SSW,202,4.9,6.4,90,0.00,,,0.00,VWS V14.01,2013-05-11 10:17:00,
2013-05-11 05:18:00,46.7,43.9,29.99,SSW,202,4.9,4.9,90,0.00,,,0.00,VWS V14.01,2013-05-11 10:18:00,
2013-05-11 05:19:00,46.9,44.1,29.99,SW,225,5.8,5.8,90,0.00,,,0.00,VWS V14.01,2013-05-11 10:19:00,
2013-05-11 05:20:00,46.9,44.1,29.99,SW,225,5.8,5.8,90,0.00,,,0.00,VWS V14.01,2013-05-11 10:20:00,
2013-05-11 05:21:00,46.9,44.1,29.99,SW,225,5.8,5.8,90,0.00,,,0.00,VWS V14.01,2013-05-11 10:21:00,
2013-05-11 05:22:00,46.9,44.1,29.99,SSW,202,5.1,5.8,90,0.00,,,0.00,VWS V14.01,2013-05-11 10:22:00,
2013-05-11 05:23:00,46.9,44.1,29.98,SSW,202,5.1,5.1,90,0.00,,,0.00,VWS V14.01,2013-05-11 10:23:00,
2013-05-11 05:24:00,46.9,44.1,29.98,SW,225,7.8,7.8,90,0.00,,,0.00,VWS V14.01,2013-05-11 10:24:00,
2013-05-11 05:25:00,46.9,44.1,29.99,SW,225,7.8,7.8,90,0.00,,,0.00,VWS V14.01,2013-05-11 10:25:00,
2013-05-11 05:26:00,46.9,44.1,29.99,SW,225,7.8,7.8,90,0.00,,,0.00,VWS V14.01,2013-05-11 10:26:00,
2013-05-11 05:27:00,47.1,44.3,29.99,SW,225,5.3,5.3,90,0.00,,,0.00,VWS V14.01,2013-05-11 10:27:00,
2013-05-11 05:28:00,47.1,44.3,29.99,SW,225,5.5,5.5,90,0.00,,,0.00,VWS V14.01,2013-05-11 10:28:00,
2013-05-11 05:29:00,47.1,44.3,29.99,SW,225,5.5,5.5,90,0.00,,,0.00,VWS V14.01,2013-05-11 10:29:00,
2013-05-11 05:30:00,47.1,44.3,29.99,SSW,202,6.7,6.7,90,0.00,,,0.00,VWS V14.01,2013-05-11 10:30:00,
2013-05-11 05:31:00,47.1,44.3,29.99,SSW,202,6.7,6.7,90,0.00,,,0.00,VWS V14.01,2013-05-11 10:31:00,
2013-05-11 05:32:00,47.3,44.5,29.99,SW,225,3.3,6.7,90,0.00,,,0.00,VWS V14.01,2013-05-11 10:32:00,
2013-05-11 05:33:00,47.3,44.5,29.99,SW,225,3.3,3.3,90,0.00,,,0.00,VWS V14.01,2013-05-11 10:33:00,
2013-05-11 05:34:00,47.3,44.5,29.99,SSW,202,5.5,5.5,90,0.00,,,0.00,VWS V14.01,2013-05-11 10:34:00,
2013-05-11 05:35:00,47.3,44.5,29.99,SSW,202,5.5,5.5,90,0.00,,,0.00,VWS V14.01,2013-05-11 10:35:00,
2013-05-11 05:36:00,47.3,44.5,29.99,SSW,202,5.5,5.5,90,0.00,,,0.00,VWS V14.01,2013-05-11 10:36:00,
2013-05-11 05:37:00,47.4,44.6,29.99,SSW,202,7.1,7.1,90,0.00,,,0.00,VWS V14.01,2013-05-11 10:37:00,
2013-05-11 05:38:00,47.4,44.6,29.98,SSW,202,7.1,7.1,90,0.00,,,0.00,VWS V14.01,2013-05-11 10:38:00,
2013-05-11 05:39:00,47.4,44.6,29.99,SSW,202,6.9,7.1,90,0.00,,,0.00,VWS V14.01,2013-05-11 10:39:00,
2013-05-11 05:40:00,47.4,44.6,29.99,SSW,202,6.9,6.9,90,0.00,,,0.00,VWS V14.01,2013-05-11 10:40:00,
2013-05-11 05:41:00,47.4,44.6,29.99,SSW,202,6.9,6.9,90,0.00,,,0.00,VWS V14.01,2013-05-11 10:41:00,
2013-05-11 05:42:00,47.4,44.6,29.98,SSW,202,5.8,5.8,90,0.00,,,0.00,VWS V14.01,2013-05-11 10:42:00,
2013-05-11 05:43:00,47.4,44.6,29.98,SSW,202,11.1,11.1,90,0.00,,,0.00,VWS V14.01,2013-05-11 10:43:00,
2013-05-11 05:44:00,47.4,44.6,29.98,SSW,202,11.1,11.1,90,0.00,,,0.00,VWS V14.01,2013-05-11 10:44:00,
2013-05-11 05:45:00,47.4,44.6,29.98,SSW,202,5.3,11.1,90,0.00,,,0.00,VWS V14.01,2013-05-11 10:45:00,
2013-05-11 05:46:00,47.4,44.6,29.98,SSW,202,5.3,5.3,90,0.00,,,0.00,VWS V14.01,2013-05-11 10:46:00,
2013-05-11 05:47:00,47.4,44.6,29.98,SSW,202,4.9,5.3,90,0.00,,,0.00,VWS V14.01,2013-05-11 10:47:00,
2013-05-11 05:48:00,47.4,44.6,29.98,SSW,202,4.9,4.9,90,0.00,,,0.00,VWS V14.01,2013-05-11 10:48:00,
2013-05-11 05:49:00,47.4,44.6,29.98,SSW,202,6.0,6.0,90,0.00,,,0.00,VWS V14.01,2013-05-11 10:49:00,
2013-05-11 05:50:00,47.4,44.6,29.98,SSW,202,6.0,6.0,90,0.00,,,0.00,VWS V14.01,2013-05-11 10:50:00,
2013-05-11 05:51:00,47.4,44.6,29.98,SSW,202,6.0,6.0,90,0.00,,,0.00,VWS V14.01,2013-05-11 10:51:00,
2013-05-11 05:52:00,47.4,44.6,29.98,SSW,202,4.2,6.0,90,0.00,,,0.00,VWS V14.01,2013-05-11 10:52:00,
2013-05-11 05:53:00,47.4,44.6,29.98,SSW,202,4.2,4.2,90,0.00,,,0.00,VWS V14.01,2013-05-11 10:53:00,
2013-05-11 05:54:00,47.4,44.6,29.98,SSW,202,10.5,10.5,90,0.00,,,0.00,VWS V14.01,2013-05-11 10:54:00,
2013-05-11 05:55:00,47.4,44.6,29.98,SSW,202,10.5,10.5,90,0.00,,,0.00,VWS V14.01,2013-05-11 10:55:00,
2013-05-11 05:56:00,47.6,44.8,29.98,SW,225,5.1,10.5,90,0.00,,,0.00,VWS V14.01,2013-05-11 10:56:00,
2013-05-11 05:57:00,47.6,44.8,29.98,SW,225,5.1,5.1,90,0.00,,,0.00,VWS V14.01,2013-05-11 10:57:00,
2013-05-11 05:58:00,47.6,44.8,29.98,SSW,202,6.4,6.4,90,0.00,,,0.00,VWS V14.01,2013-05-11 10:58:00,
2013-05-11 05:59:00,47.6,44.8,29.98,SSW,202,6.4,6.4,90,0.00,,,0.00,VWS V14.01,2013-05-11 10:59:00,
2013-05-11 06:00:00,47.6,44.8,29.98,SSW,202,6.4,6.4,90,0.00,,,0.00,VWS V14.01,2013-05-11 11:00:00,
2013-05-11 06:01:00,47.6,44.8,29.98,SSW,202,6.4,6.4,90,0.00,,,0.00,VWS V14.01,2013-05-11 11:01:00,
2013-05-11 06:02:00,47.6,44.8,29.98,SSW,202,4.2,6.4,90,0.00,,,0.00,VWS V14.01,2013-05-11 11:02:00,
2013-05-11 06:03:00,47.6,44.8,29.98,SSW,202,4.2,4.2,90,0.00,,,0.00,VWS V14.01,2013-05-11 11:03:00,
2013-05-11 06:04:00,47.6,44.8,29.98,SW,225,3.8,4.2,90,0.00,,,0.00,VWS V14.01,2013-05-11 11:04:00,
2013-05-11 06:05:00,47.6,44.8,29.98,SW,225,3.8,3.8,90,0.00,,,0.00,VWS V14.01,2013-05-11 11:05:00,
2013-05-11 06:06:00,47.6,44.8,29.99,SW,225,3.8,3.8,90,0.00,,,0.00,VWS V14.01,2013-05-11 11:06:00,
2013-05-11 06:07:00,47.8,45.0,29.98,SW,225,4.6,4.6,90,0.00,,,0.00,VWS V14.01,2013-05-11 11:07:00,
2013-05-11 06:08:00,47.8,45.0,29.98,SW,225,4.6,4.6,90,0.00,,,0.00,VWS V14.01,2013-05-11 11:08:00,
2013-05-11 06:09:00,47.8,45.0,29.98,SSW,202,7.8,7.8,90,0.00,,,0.00,VWS V14.01,2013-05-11 11:09:00,
2013-05-11 06:10:00,47.8,45.0,29.97,SSW,202,7.8,7.8,90,0.00,,,0.00,VWS V14.01,2013-05-11 11:10:00,
2013-05-11 06:11:00,47.8,45.0,29.97,SSW,202,10.7,10.7,90,0.00,,,0.00,VWS V14.01,2013-05-11 11:11:00,
2013-05-11 06:12:00,47.8,45.0,29.97,SSW,202,10.7,10.7,90,0.00,,,0.00,VWS V14.01,2013-05-11 11:12:00,
2013-05-11 06:13:00,47.8,45.0,29.98,SSW,202,12.7,12.7,90,0.00,,,0.00,VWS V14.01,2013-05-11 11:13:00,
2013-05-11 06:14:00,47.8,45.0,29.97,SSW,202,12.7,12.7,90,0.00,,,0.00,VWS V14.01,2013-05-11 11:14:00,
2013-05-11 06:15:00,47.8,45.0,29.97,SW,225,5.3,5.3,90,0.00,,,0.00,VWS V14.01,2013-05-11 11:15:00,
2013-05-11 06:16:00,47.8,45.0,29.97,SW,225,5.3,5.3,90,0.00,,,0.00,VWS V14.01,2013-05-11 11:16:00,
2013-05-11 06:17:00,48.0,45.2,29.98,SW,225,5.1,5.3,90,0.00,,,0.00,VWS V14.01,2013-05-11 11:17:00,
2013-05-11 06:18:00,48.0,45.2,29.98,SW,225,5.1,5.1,90,0.00,,,0.00,VWS V14.01,2013-05-11 11:18:00,
2013-05-11 06:19:00,47.8,45.0,29.98,SW,225,4.4,5.1,90,0.00,,,0.00,VWS V14.01,2013-05-11 11:19:00,
2013-05-11 06:20:00,47.8,45.0,29.98,SW,225,4.4,4.4,90,0.00,,,0.00,VWS V14.01,2013-05-11 11:20:00,
2013-05-11 06:21:00,47.8,45.0,29.98,SW,225,5.3,5.3,90,0.00,,,0.00,VWS V14.01,2013-05-11 11:21:00,
2013-05-11 06:22:00,48.0,45.2,29.98,SW,225,5.3,5.3,90,0.00,,,0.00,VWS V14.01,2013-05-11 11:22:00,
2013-05-11 06:23:00,48.0,45.2,29.98,SW,225,5.3,5.3,90,0.00,,,0.00,VWS V14.01,2013-05-11 11:23:00,
2013-05-11 06:24:00,48.0,45.2,29.98,SW,225,6.4,6.4,90,0.00,,,0.00,VWS V14.01,2013-05-11 11:24:00,
2013-05-11 06:25:00,48.0,45.2,29.98,SW,225,6.4,6.4,90,0.00,,,0.00,VWS V14.01,2013-05-11 11:25:00,
2013-05-11 06:26:00,48.0,45.2,29.98,SSW,202,17.0,17.0,90,0.00,,,0.00,VWS V14.01,2013-05-11 11:26:00,
2013-05-11 06:27:00,48.0,45.2,29.98,SSW,202,17.0,17.0,90,0.00,,,0.00,VWS V14.01,2013-05-11 11:27:00,
2013-05-11 06:28:00,48.2,45.4,29.98,SW,225,8.2,17.0,90,0.00,,,0.00,VWS V14.01,2013-05-11 11:28:00,
2013-05-11 06:29:00,48.2,45.4,29.98,SW,225,8.2,8.2,90,0.00,,,0.00,VWS V14.01,2013-05-11 11:29:00,
2013-05-11 06:30:00,48.2,45.1,29.98,SW,225,7.8,7.8,89,0.00,,,0.00,VWS V14.01,2013-05-11 11:30:00,
2013-05-11 06:31:00,48.2,45.1,29.98,SW,225,7.8,7.8,89,0.00,,,0.00,VWS V14.01,2013-05-11 11:31:00,
2013-05-11 06:32:00,48.2,45.1,29.99,SW,225,5.3,7.8,89,0.00,,,0.00,VWS V14.01,2013-05-11 11:32:00,
2013-05-11 06:33:00,48.2,45.1,29.98,SW,225,5.3,5.3,89,0.00,,,0.00,VWS V14.01,2013-05-11 11:33:00,
2013-05-11 06:34:00,48.2,45.1,29.98,SW,225,4.2,5.3,89,0.00,,,0.00,VWS V14.01,2013-05-11 11:34:00,
2013-05-11 06:35:00,48.2,45.1,29.98,SW,225,4.2,4.2,89,0.00,,,0.00,VWS V14.01,2013-05-11 11:35:00,
2013-05-11 06:36:00,48.2,45.1,29.98,SW,225,4.2,4.2,89,0.00,,,0.00,VWS V14.01,2013-05-11 11:36:00,
2013-05-11 06:37:00,48.2,45.1,29.98,West,270,6.4,6.4,89,0.00,,,0.00,VWS V14.01,2013-05-11 11:37:00,
2013-05-11 06:38:00,48.2,45.1,29.99,West,270,6.4,6.4,89,0.00,,,0.00,VWS V14.01,2013-05-11 11:38:00,
2013-05-11 06:39:00,48.2,45.1,29.99,SW,225,1.7,6.4,89,0.00,,,0.00,VWS V14.01,2013-05-11 11:39:00,
2013-05-11 06:40:00,48.2,45.1,29.99,SW,225,1.7,1.7,89,0.00,,,0.00,VWS V14.01,2013-05-11 11:40:00,
2013-05-11 06:41:00,48.2,45.1,29.99,SW,225,5.3,5.3,89,0.00,,,0.00,VWS V14.01,2013-05-11 11:41:00,
2013-05-11 06:42:00,48.2,45.1,29.99,SW,225,5.3,5.3,89,0.00,,,0.00,VWS V14.01,2013-05-11 11:42:00,
2013-05-11 06:43:00,48.3,45.2,29.99,SW,225,6.4,6.4,89,0.00,,,0.00,VWS V14.01,2013-05-11 11:43:00,
2013-05-11 06:44:00,48.3,45.2,29.98,SW,225,6.4,6.4,89,0.00,,,0.00,VWS V14.01,2013-05-11 11:44:00,
2013-05-11 06:45:00,48.3,45.2,29.98,SW,225,2.9,2.9,89,0.00,,,0.00,VWS V14.01,2013-05-11 11:45:00,
2013-05-11 06:46:00,48.3,45.2,29.99,SW,225,2.9,2.9,89,0.00,,,0.00,VWS V14.01,2013-05-11 11:46:00,
2013-05-11 06:47:00,48.5,45.4,29.98,SSW,202,4.0,4.0,89,0.00,,,0.00,VWS V14.01,2013-05-11 11:47:00,
2013-05-11 06:48:00,48.5,45.4,29.98,SSW,202,4.0,4.0,89,0.00,,,0.00,VWS V14.01,2013-05-11 11:48:00,
2013-05-11 06:49:00,48.5,45.4,29.98,SW,225,8.2,8.2,89,0.00,,,0.00,VWS V14.01,2013-05-11 11:49:00,
2013-05-11 06:50:00,48.5,45.4,29.98,SW,225,8.2,8.2,89,0.00,,,0.00,VWS V14.01,2013-05-11 11:50:00,
2013-05-11 06:51:00,48.5,45.4,29.98,SW,225,8.2,8.2,89,0.00,,,0.00,VWS V14.01,2013-05-11 11:51:00,
2013-05-11 06:52:00,48.7,45.6,29.98,SW,225,3.8,8.2,89,0.00,,,0.00,VWS V14.01,2013-05-11 11:52:00,
2013-05-11 06:53:00,48.7,45.6,29.98,SW,225,3.8,3.8,89,0.00,,,0.00,VWS V14.01,2013-05-11 11:53:00,
2013-05-11 06:54:00,48.7,45.9,29.98,SW,225,3.8,3.8,90,0.00,,,0.00,VWS V14.01,2013-05-11 11:54:00,
2013-05-11 06:55:00,48.7,45.9,29.98,SW,225,3.8,3.8,90,0.00,,,0.00,VWS V14.01,2013-05-11 11:55:00,
2013-05-11 06:56:00,48.7,45.9,29.98,SW,225,3.8,3.8,90,0.00,,,0.00,VWS V14.01,2013-05-11 11:56:00,
2013-05-11 06:57:00,48.9,46.1,29.98,West,270,3.1,3.8,90,0.00,,,0.00,VWS V14.01,2013-05-11 11:57:00,
2013-05-11 06:58:00,48.9,46.1,29.98,SW,225,1.5,3.1,90,0.00,,,0.00,VWS V14.01,2013-05-11 11:58:00,
2013-05-11 06:59:00,48.9,46.1,29.98,SW,225,1.5,1.5,90,0.00,,,0.00,VWS V14.01,2013-05-11 11:59:00,
2013-05-11 07:00:00,48.9,46.1,29.98,SW,225,1.5,1.5,90,0.00,,,0.00,VWS V14.01,2013-05-11 12:00:00,
2013-05-11 07:01:00,48.9,46.1,29.98,SW,225,1.5,1.5,90,0.00,,,0.00,VWS V14.01,2013-05-11 12:01:00,
2013-05-11 07:02:00,49.1,46.3,29.98,SW,225,5.1,5.1,90,0.00,,,0.00,VWS V14.01,2013-05-11 12:02:00,
2013-05-11 07:03:00,49.1,46.3,29.98,SW,225,5.1,5.1,90,0.00,,,0.00,VWS V14.01,2013-05-11 12:03:00,
2013-05-11 07:04:00,49.2,46.4,29.98,SW,225,6.7,6.7,90,0.00,,,0.00,VWS V14.01,2013-05-11 12:04:00,
2013-05-11 07:05:00,49.2,46.4,29.98,SW,225,6.7,6.7,90,0.00,,,0.00,VWS V14.01,2013-05-11 12:05:00,
2013-05-11 07:06:00,49.2,46.4,29.98,SW,225,6.7,6.7,90,0.00,,,0.00,VWS V14.01,2013-05-11 12:06:00,
2013-05-11 07:07:00,49.4,46.6,29.98,SSW,202,3.8,6.7,90,0.00,,,0.00,VWS V14.01,2013-05-11 12:07:00,
2013-05-11 07:08:00,49.4,46.6,29.98,SSW,202,3.8,3.8,90,0.00,,,0.00,VWS V14.01,2013-05-11 12:08:00,
2013-05-11 07:09:00,49.6,46.8,29.98,West,270,0.0,3.8,90,0.00,,,0.00,VWS V14.01,2013-05-11 12:09:00,
2013-05-11 07:10:00,49.6,46.8,29.98,West,270,0.0,0.0,90,0.00,,,0.00,VWS V14.01,2013-05-11 12:10:00,
2013-05-11 07:11:00,49.8,47.0,29.98,SW,225,2.9,2.9,90,0.00,,,0.00,VWS V14.01,2013-05-11 12:11:00,
2013-05-11 07:12:00,49.8,47.0,29.98,SW,225,2.9,2.9,90,0.00,,,0.00,VWS V14.01,2013-05-11 12:12:00,
2013-05-11 07:13:00,49.8,47.0,29.98,West,270,0.0,2.9,90,0.00,,,0.00,VWS V14.01,2013-05-11 12:13:00,
2013-05-11 07:14:00,49.8,47.0,29.98,West,270,0.0,0.0,90,0.00,,,0.00,VWS V14.01,2013-05-11 12:14:00,
2013-05-11 07:15:00,49.8,47.0,29.98,West,270,0.0,0.0,90,0.00,,,0.00,VWS V14.01,2013-05-11 12:15:00,
2013-05-11 07:16:00,49.8,47.0,29.98,West,270,0.0,0.0,90,0.00,,,0.00,VWS V14.01,2013-05-11 12:16:00,
2013-05-11 07:17:00,49.8,47.0,29.98,WSW,248,0.0,0.0,90,0.00,,,0.00,VWS V14.01,2013-05-11 12:17:00,
2013-05-11 07:18:00,49.8,47.0,29.98,WSW,248,0.0,0.0,90,0.00,,,0.00,VWS V14.01,2013-05-11 12:18:00,
2013-05-11 07:19:00,49.8,47.0,29.98,WSW,248,0.0,0.0,90,0.00,,,0.00,VWS V14.01,2013-05-11 12:19:00,
2013-05-11 07:20:00,50.1,47.3,29.98,WSW,248,0.0,0.0,90,0.00,,,0.00,VWS V14.01,2013-05-11 12:20:00,
2013-05-11 07:21:00,50.1,47.3,29.98,WSW,248,0.0,0.0,90,0.00,,,0.00,VWS V14.01,2013-05-11 12:21:00,
2013-05-11 07:22:00,50.5,47.7,29.97,WSW,248,4.6,4.6,90,0.00,,,0.00,VWS V14.01,2013-05-11 12:22:00,
2013-05-11 07:23:00,50.5,47.7,29.98,WSW,248,4.6,4.6,90,0.00,,,0.00,VWS V14.01,2013-05-11 12:23:00,
2013-05-11 07:24:00,51.0,48.2,29.97,SW,225,0.0,4.6,90,0.00,,,0.00,VWS V14.01,2013-05-11 12:24:00,
2013-05-11 07:25:00,51.0,48.2,29.98,SW,225,0.0,0.0,90,0.00,,,0.00,VWS V14.01,2013-05-11 12:25:00,
2013-05-11 07:26:00,52.3,49.5,29.98,West,270,0.8,0.8,90,0.00,,,0.00,VWS V14.01,2013-05-11 12:26:00,
2013-05-11 07:27:00,52.3,49.5,29.97,West,270,0.8,0.8,90,0.00,,,0.00,VWS V14.01,2013-05-11 12:27:00,
2013-05-11 07:28:00,53.0,49.8,29.98,West,270,1.3,1.3,89,0.00,,,0.00,VWS V14.01,2013-05-11 12:28:00,
2013-05-11 07:29:00,53.0,49.8,29.98,West,270,1.3,1.3,89,0.00,,,0.00,VWS V14.01,2013-05-11 12:29:00,
2013-05-11 07:30:00,52.7,49.5,29.98,SW,225,1.1,1.1,89,0.00,,,0.00,VWS V14.01,2013-05-11 12:30:00,
2013-05-11 07:31:00,52.7,49.6,29.98,SW,225,1.1,1.1,89,0.00,,,0.00,VWS V14.01,2013-05-11 12:31:00,
2013-05-11 07:32:00,52.5,49.4,29.97,West,270,1.3,1.3,89,0.00,,,0.00,VWS V14.01,2013-05-11 12:32:00,
2013-05-11 07:33:00,52.5,49.4,29.98,West,270,1.3,1.3,89,0.00,,,0.00,VWS V14.01,2013-05-11 12:33:00,
2013-05-11 07:34:00,52.5,49.4,29.98,SW,225,5.5,5.5,89,0.00,,,0.00,VWS V14.01,2013-05-11 12:34:00,
2013-05-11 07:35:00,52.3,49.2,29.98,SW,225,5.5,5.5,89,0.00,,,0.00,VWS V14.01,2013-05-11 12:35:00,
2013-05-11 07:36:00,52.3,49.2,29.97,SW,225,5.5,5.5,89,0.00,,,0.00,VWS V14.01,2013-05-11 12:36:00,
2013-05-11 07:37:00,53.2,49.7,29.98,SSW,202,2.9,5.5,88,0.00,,,0.00,VWS V14.01,2013-05-11 12:37:00,
2013-05-11 07:38:00,53.2,49.7,29.98,SSW,202,2.9,2.9,88,0.00,,,0.00,VWS V14.01,2013-05-11 12:38:00,
2013-05-11 07:39:00,53.7,49.6,29.98,West,270,6.2,6.2,86,0.00,,,0.00,VWS V14.01,2013-05-11 12:39:00,
2013-05-11 07:40:00,53.7,49.6,29.98,West,270,6.2,6.2,86,0.00,,,0.00,VWS V14.01,2013-05-11 12:40:00,
2013-05-11 07:41:00,54.6,50.5,29.97,WNW,292,9.6,9.6,86,0.00,,,0.00,VWS V14.01,2013-05-11 12:41:00,
2013-05-11 07:42:00,54.6,50.5,29.97,WNW,292,9.6,9.6,86,0.00,,,0.00,VWS V14.01,2013-05-11 12:42:00,
2013-05-11 07:43:00,55.2,50.5,29.97,West,270,4.2,9.6,84,0.00,,,0.00,VWS V14.01,2013-05-11 12:43:00,
2013-05-11 07:44:00,55.2,50.5,29.97,West,270,4.2,4.2,84,0.00,,,0.00,VWS V14.01,2013-05-11 12:44:00,
2013-05-11 07:45:00,55.0,49.9,29.97,West,270,0.0,0.0,83,0.00,,,0.00,VWS V14.01,2013-05-11 12:45:00,
2013-05-11 07:46:00,55.0,49.9,29.97,West,270,0.0,0.0,83,0.00,,,0.00,VWS V14.01,2013-05-11 12:46:00,
2013-05-11 07:47:00,55.2,49.8,29.97,WNW,292,6.4,6.4,82,0.00,,,0.00,VWS V14.01,2013-05-11 12:47:00,
2013-05-11 07:48:00,55.2,49.8,29.98,WNW,292,6.4,6.4,82,0.00,,,0.00,VWS V14.01,2013-05-11 12:48:00,
2013-05-11 07:49:00,55.2,49.8,29.98,West,270,6.9,6.9,82,0.00,,,0.00,VWS V14.01,2013-05-11 12:49:00,
2013-05-11 07:50:00,55.5,49.4,29.97,West,270,6.9,6.9,80,0.02,,,0.02,VWS V14.01,2013-05-11 12:50:00,
2013-05-11 07:51:00,55.5,49.4,29.97,West,270,6.9,6.9,80,0.02,,,0.02,VWS V14.01,2013-05-11 12:51:00,
2013-05-11 07:52:00,55.2,48.1,29.97,West,270,9.3,9.3,77,0.02,,,0.02,VWS V14.01,2013-05-11 12:52:00,
2013-05-11 07:53:00,55.2,48.1,29.97,West,270,9.3,9.3,77,0.02,,,0.02,VWS V14.01,2013-05-11 12:53:00,
2013-05-11 07:54:00,55.2,47.8,29.98,WNW,292,9.3,9.3,76,0.02,,,0.02,VWS V14.01,2013-05-11 12:54:00,
2013-05-11 07:55:00,55.2,47.8,29.98,WNW,292,9.3,9.3,76,0.02,,,0.02,VWS V14.01,2013-05-11 12:55:00,
2013-05-11 07:56:00,55.4,47.6,29.98,WNW,292,7.3,9.3,75,0.02,,,0.02,VWS V14.01,2013-05-11 12:56:00,
2013-05-11 07:57:00,55.4,47.6,29.98,WNW,292,7.3,7.3,75,0.02,,,0.02,VWS V14.01,2013-05-11 12:57:00,
2013-05-11 07:58:00,55.5,47.4,29.98,WNW,292,14.0,14.0,74,0.02,,,0.02,VWS V14.01,2013-05-11 12:58:00,
2013-05-11 07:59:00,55.5,47.4,29.98,WNW,292,14.0,14.0,74,0.02,,,0.02,VWS V14.01,2013-05-11 12:59:00,
2013-05-11 08:00:00,55.2,47.1,29.98,WNW,292,10.5,10.5,74,0.02,,,0.02,VWS V14.01,2013-05-11 13:00:00,
2013-05-11 08:01:00,55.2,47.1,29.97,WNW,292,10.5,10.5,74,0.02,,,0.02,VWS V14.01,2013-05-11 13:01:00,
2013-05-11 08:02:00,55.2,47.4,29.98,WNW,292,10.5,10.5,75,0.02,,,0.02,VWS V14.01,2013-05-11 13:02:00,
2013-05-11 08:03:00,55.2,47.4,29.98,WNW,292,7.8,10.5,75,0.02,,,0.02,VWS V14.01,2013-05-11 13:03:00,
2013-05-11 08:04:00,55.5,47.7,29.98,WNW,292,7.8,7.8,75,0.02,,,0.02,VWS V14.01,2013-05-11 13:04:00,
2013-05-11 08:05:00,55.5,47.7,29.98,NW,315,13.6,13.6,75,0.02,,,0.02,VWS V14.01,2013-05-11 13:05:00,
2013-05-11 08:06:00,55.5,47.7,29.98,NW,315,13.6,13.6,75,0.02,,,0.02,VWS V14.01,2013-05-11 13:06:00,
2013-05-11 08:07:00,55.7,47.2,29.98,NNW,338,9.6,13.6,73,0.02,,,0.02,VWS V14.01,2013-05-11 13:07:00,
2013-05-11 08:08:00,55.7,47.2,29.98,NNW,338,9.6,9.6,73,0.02,,,0.02,VWS V14.01,2013-05-11 13:08:00,
2013-05-11 08:09:00,55.7,46.5,29.98,WNW,292,5.5,9.6,71,0.02,,,0.02,VWS V14.01,2013-05-11 13:09:00,
2013-05-11 08:10:00,55.7,46.5,29.98,WNW,292,5.5,5.5,71,0.02,,,0.02,VWS V14.01,2013-05-11 13:10:00,
2013-05-11 08:11:00,55.5,45.9,29.98,NW,315,11.6,11.6,70,0.02,,,0.02,VWS V14.01,2013-05-11 13:11:00,
2013-05-11 08:12:00,55.5,45.9,29.98,NW,315,11.6,11.6,70,0.02,,,0.02,VWS V14.01,2013-05-11 13:12:00,
2013-05-11 08:13:00,55.2,46.0,29.98,NW,315,14.9,14.9,71,0.02,,,0.02,VWS V14.01,2013-05-11 13:13:00,
2013-05-11 08:14:00,55.2,46.0,29.98,NW,315,14.9,14.9,71,0.02,,,0.02,VWS V14.01,2013-05-11 13:14:00,
2013-05-11 08:15:00,55.2,45.2,29.98,WNW,292,10.9,10.9,69,0.02,,,0.02,VWS V14.01,2013-05-11 13:15:00,
2013-05-11 08:16:00,55.2,45.2,29.98,WNW,292,10.9,10.9,69,0.02,,,0.02,VWS V14.01,2013-05-11 13:16:00,
2013-05-11 08:17:00,55.2,45.2,29.98,WNW,292,8.5,10.9,69,0.02,,,0.02,VWS V14.01,2013-05-11 13:17:00,
2013-05-11 08:18:00,55.2,45.6,29.98,WNW,292,8.5,8.5,70,0.02,,,0.02,VWS V14.01,2013-05-11 13:18:00,
2013-05-11 08:19:00,55.7,46.1,29.99,NW,315,6.0,8.5,70,0.02,,,0.02,VWS V14.01,2013-05-11 13:19:00,
2013-05-11 08:20:00,55.7,46.5,29.99,NW,315,6.0,6.0,71,0.02,,,0.02,VWS V14.01,2013-05-11 13:20:00,
2013-05-11 08:21:00,55.7,46.5,29.99,NW,315,6.0,6.0,71,0.02,,,0.02,VWS V14.01,2013-05-11 13:21:00,
2013-05-11 08:22:00,55.9,46.3,29.99,NNW,338,0.6,6.0,70,0.02,,,0.02,VWS V14.01,2013-05-11 13:22:00,
2013-05-11 08:23:00,55.9,46.3,29.99,NNW,338,0.6,0.6,70,0.02,,,0.02,VWS V14.01,2013-05-11 13:23:00,
2013-05-11 08:24:00,56.4,46.8,29.99,WNW,292,15.8,15.8,70,0.02,,,0.02,VWS V14.01,2013-05-11 13:24:00,
2013-05-11 08:25:00,56.4,46.8,29.99,WNW,292,15.8,15.8,70,0.02,,,0.02,VWS V14.01,2013-05-11 13:25:00,
2013-05-11 08:26:00,56.3,45.5,29.99,NW,315,10.9,15.8,67,0.02,,,0.02,VWS V14.01,2013-05-11 13:26:00,
2013-05-11 08:27:00,56.3,45.5,29.99,NW,315,10.9,10.9,67,0.02,,,0.02,VWS V14.01,2013-05-11 13:27:00,
2013-05-11 08:28:00,56.1,44.9,29.99,NW,315,17.0,17.0,66,0.02,,,0.02,VWS V14.01,2013-05-11 13:28:00,
2013-05-11 08:29:00,56.1,44.9,29.99,NW,315,17.0,17.0,66,0.02,,,0.02,VWS V14.01,2013-05-11 13:29:00,
2013-05-11 08:30:00,55.7,44.9,29.99,WNW,292,12.7,12.7,67,0.02,,,0.02,VWS V14.01,2013-05-11 13:30:00,
2013-05-11 08:31:00,55.7,44.9,29.99,WNW,292,12.7,12.7,67,0.02,,,0.02,VWS V14.01,2013-05-11 13:31:00,
2013-05-11 08:32:00,55.7,45.3,29.99,NW,315,6.0,12.7,68,0.02,,,0.02,VWS V14.01,2013-05-11 13:32:00,
2013-05-11 08:33:00,55.7,45.3,29.99,NW,315,6.0,6.0,68,0.02,,,0.02,VWS V14.01,2013-05-11 13:33:00,
2013-05-11 08:34:00,55.7,45.3,29.99,NW,315,6.0,6.0,68,0.02,,,0.02,VWS V14.01,2013-05-11 13:34:00,
2013-05-11 08:35:00,55.7,45.3,29.99,NNW,338,14.9,14.9,68,0.02,,,0.02,VWS V14.01,2013-05-11 13:35:00,
2013-05-11 08:36:00,55.7,45.3,29.99,NNW,338,14.9,14.9,68,0.02,,,0.02,VWS V14.01,2013-05-11 13:36:00,
2013-05-11 08:37:00,55.9,45.1,29.99,WNW,292,13.4,14.9,67,0.02,,,0.02,VWS V14.01,2013-05-11 13:37:00,
2013-05-11 08:38:00,55.9,45.1,29.99,WNW,292,13.4,13.4,67,0.02,,,0.02,VWS V14.01,2013-05-11 13:38:00,
2013-05-11 08:39:00,55.9,45.1,29.99,WNW,292,5.1,13.4,67,0.02,,,0.02,VWS V14.01,2013-05-11 13:39:00,
2013-05-11 08:40:00,55.9,45.1,29.99,WNW,292,5.1,5.1,67,0.02,,,0.02,VWS V14.01,2013-05-11 13:40:00,
2013-05-11 08:41:00,55.9,44.7,29.99,NNW,338,17.4,17.4,66,0.02,,,0.02,VWS V14.01,2013-05-11 13:41:00,
2013-05-11 08:42:00,55.9,44.7,29.99,NNW,338,17.4,17.4,66,0.02,,,0.02,VWS V14.01,2013-05-11 13:42:00,
2013-05-11 08:43:00,55.9,45.5,29.99,WNW,292,6.7,17.4,68,0.02,,,0.02,VWS V14.01,2013-05-11 13:43:00,
2013-05-11 08:44:00,55.9,45.5,30.00,WNW,292,6.7,6.7,68,0.02,,,0.02,VWS V14.01,2013-05-11 13:44:00,
2013-05-11 08:45:00,55.7,45.3,29.99,WNW,292,10.0,10.0,68,0.02,,,0.02,VWS V14.01,2013-05-11 13:45:00,
2013-05-11 08:46:00,55.7,45.3,29.99,WNW,292,10.0,10.0,68,0.02,,,0.02,VWS V14.01,2013-05-11 13:46:00,
2013-05-11 08:47:00,55.7,44.9,29.99,NW,315,10.7,10.7,67,0.02,,,0.02,VWS V14.01,2013-05-11 13:47:00,
2013-05-11 08:48:00,55.5,44.7,30.00,NW,315,10.7,10.7,67,0.02,,,0.02,VWS V14.01,2013-05-11 13:48:00,
2013-05-11 08:49:00,55.5,44.7,29.99,North,0,13.6,13.6,67,0.02,,,0.02,VWS V14.01,2013-05-11 13:49:00,
2013-05-11 08:50:00,55.4,45.0,30.00,North,0,13.6,13.6,68,0.00,,,0.02,VWS V14.01,2013-05-11 13:50:00,
2013-05-11 08:51:00,55.4,45.0,29.99,North,0,13.6,13.6,68,0.00,,,0.02,VWS V14.01,2013-05-11 13:51:00,
2013-05-11 08:52:00,55.5,45.1,30.00,NNW,338,7.1,13.6,68,0.00,,,0.02,VWS V14.01,2013-05-11 13:52:00,
2013-05-11 08:53:00,55.5,45.1,30.00,NNW,338,7.1,7.1,68,0.00,,,0.02,VWS V14.01,2013-05-11 13:53:00,
2013-05-11 08:54:00,55.9,45.5,30.00,North,0,6.9,7.1,68,0.00,,,0.02,VWS V14.01,2013-05-11 13:54:00,
2013-05-11 08:55:00,55.9,45.5,30.00,North,0,6.9,6.9,68,0.00,,,0.02,VWS V14.01,2013-05-11 13:55:00,
2013-05-11 08:56:00,56.8,46.8,30.00,NW,315,5.5,6.9,69,0.00,,,0.02,VWS V14.01,2013-05-11 13:56:00,
2013-05-11 08:57:00,56.8,46.8,30.00,NW,315,5.5,5.5,69,0.00,,,0.02,VWS V14.01,2013-05-11 13:57:00,
2013-05-11 08:58:00,56.4,45.6,30.00,NNW,338,16.5,16.5,67,0.00,,,0.02,VWS V14.01,2013-05-11 13:58:00,
2013-05-11 08:59:00,56.4,45.6,30.00,NNW,338,16.5,16.5,67,0.00,,,0.02,VWS V14.01,2013-05-11 13:59:00,
2013-05-11 09:00:00,56.4,45.6,30.00,NNW,338,10.2,10.2,67,0.00,,,0.02,VWS V14.01,2013-05-11 14:00:00,
2013-05-11 09:01:00,56.4,45.6,30.01,NNW,338,10.2,10.2,67,0.00,,,0.02,VWS V14.01,2013-05-11 14:01:00,
2013-05-11 09:02:00,56.8,45.2,30.01,NNW,338,13.1,13.1,65,0.00,,,0.02,VWS V14.01,2013-05-11 14:02:00,
2013-05-11 09:03:00,56.8,45.2,30.01,NNW,338,13.1,13.1,65,0.00,,,0.02,VWS V14.01,2013-05-11 14:03:00,
2013-05-11 09:04:00,56.8,45.2,30.01,WNW,292,18.1,18.1,65,0.00,,,0.02,VWS V14.01,2013-05-11 14:04:00,
2013-05-11 09:05:00,56.4,45.2,30.01,WNW,292,18.1,18.1,66,0.00,,,0.02,VWS V14.01,2013-05-11 14:05:00,
2013-05-11 09:06:00,56.4,45.2,30.00,WNW,292,18.1,18.1,66,0.00,,,0.02,VWS V14.01,2013-05-11 14:06:00,
2013-05-11 09:07:00,55.9,44.7,30.00,NW,315,11.6,18.1,66,0.00,,,0.02,VWS V14.01,2013-05-11 14:07:00,
2013-05-11 09:08:00,55.9,44.7,30.00,NW,315,11.6,11.6,66,0.00,,,0.02,VWS V14.01,2013-05-11 14:08:00,
2013-05-11 09:09:00,56.4,46.0,30.00,NW,315,12.7,12.7,68,0.00,,,0.02,VWS V14.01,2013-05-11 14:09:00,
2013-05-11 09:10:00,56.4,46.0,30.00,NW,315,12.7,12.7,68,0.00,,,0.02,VWS V14.01,2013-05-11 14:10:00,
2013-05-11 09:11:00,57.0,45.8,30.00,West,270,13.4,13.4,66,0.00,,,0.02,VWS V14.01,2013-05-11 14:11:00,
2013-05-11 09:12:00,57.0,45.8,30.00,West,270,13.4,13.4,66,0.00,,,0.02,VWS V14.01,2013-05-11 14:12:00,
2013-05-11 09:13:00,56.6,44.6,30.00,WNW,292,14.0,14.0,64,0.00,,,0.02,VWS V14.01,2013-05-11 14:13:00,
2013-05-11 09:14:00,56.6,44.6,30.00,WNW,292,14.0,14.0,64,0.00,,,0.02,VWS V14.01,2013-05-11 14:14:00,
2013-05-11 09:15:00,56.6,45.4,30.00,NW,315,9.6,9.6,66,0.00,,,0.02,VWS V14.01,2013-05-11 14:15:00,
2013-05-11 09:16:00,56.6,45.4,30.00,NW,315,9.6,9.6,66,0.00,,,0.02,VWS V14.01,2013-05-11 14:16:00,
2013-05-11 09:17:00,56.6,45.4,30.00,WNW,292,11.8,11.8,66,0.00,,,0.02,VWS V14.01,2013-05-11 14:17:00,
2013-05-11 09:18:00,56.6,45.4,30.00,WNW,292,11.8,11.8,66,0.00,,,0.02,VWS V14.01,2013-05-11 14:18:00,
2013-05-11 09:19:00,56.6,45.4,30.00,WNW,292,12.3,12.3,66,0.00,,,0.02,VWS V14.01,2013-05-11 14:19:00,
2013-05-11 09:20:00,56.4,44.0,30.00,WNW,292,12.3,12.3,63,0.00,,,0.02,VWS V14.01,2013-05-11 14:20:00,
2013-05-11 09:21:00,56.4,44.0,30.00,WNW,292,12.3,12.3,63,0.00,,,0.02,VWS V14.01,2013-05-11 14:21:00,
2013-05-11 09:22:00,56.3,44.3,30.00,NW,315,8.9,12.3,64,0.00,,,0.02,VWS V14.01,2013-05-11 14:22:00,
2013-05-11 09:23:00,56.3,44.3,30.01,NW,315,8.9,8.9,64,0.00,,,0.02,VWS V14.01,2013-05-11 14:23:00,
2013-05-11 09:24:00,57.0,45.0,30.01,NNW,338,12.5,12.5,64,0.00,,,0.02,VWS V14.01,2013-05-11 14:24:00,
2013-05-11 09:25:00,57.0,45.0,30.01,NNW,338,12.5,12.5,64,0.00,,,0.02,VWS V14.01,2013-05-11 14:25:00,
2013-05-11 09:26:00,56.4,43.6,30.01,WNW,292,12.7,12.7,62,0.00,,,0.02,VWS V14.01,2013-05-11 14:26:00,
2013-05-11 09:27:00,56.4,43.6,30.01,WNW,292,12.7,12.7,62,0.00,,,0.02,VWS V14.01,2013-05-11 14:27:00,
2013-05-11 09:28:00,55.9,43.1,30.01,NW,315,12.5,12.7,62,0.00,,,0.02,VWS V14.01,2013-05-11 14:28:00,
2013-05-11 09:29:00,55.9,43.1,30.01,NW,315,12.5,12.5,62,0.00,,,0.02,VWS V14.01,2013-05-11 14:29:00,
2013-05-11 09:30:00,55.9,43.1,30.01,NW,315,5.3,5.3,62,0.00,,,0.02,VWS V14.01,2013-05-11 14:30:00,
2013-05-11 09:31:00,55.9,43.1,30.01,NW,315,5.3,5.3,62,0.00,,,0.02,VWS V14.01,2013-05-11 14:31:00,
2013-05-11 09:32:00,56.1,43.3,30.01,NW,315,4.6,5.3,62,0.00,,,0.02,VWS V14.01,2013-05-11 14:32:00,
2013-05-11 09:33:00,56.1,43.3,30.01,NW,315,4.6,4.6,62,0.00,,,0.02,VWS V14.01,2013-05-11 14:33:00,
2013-05-11 09:34:00,56.1,43.7,30.01,WNW,292,14.7,14.7,63,0.00,,,0.02,VWS V14.01,2013-05-11 14:34:00,
2013-05-11 09:35:00,56.4,44.0,30.01,WNW,292,14.7,14.7,63,0.00,,,0.02,VWS V14.01,2013-05-11 14:35:00,
2013-05-11 09:36:00,56.4,44.0,30.02,WNW,292,14.7,14.7,63,0.00,,,0.02,VWS V14.01,2013-05-11 14:36:00,
2013-05-11 09:37:00,57.0,44.1,30.01,WNW,292,7.3,14.7,62,0.00,,,0.02,VWS V14.01,2013-05-11 14:37:00,
2013-05-11 09:38:00,57.0,44.1,30.02,WNW,292,7.3,7.3,62,0.00,,,0.02,VWS V14.01,2013-05-11 14:38:00,
2013-05-11 09:39:00,57.0,43.7,30.01,NNW,338,15.2,15.2,61,0.00,,,0.02,VWS V14.01,2013-05-11 14:39:00,
2013-05-11 09:40:00,57.0,43.7,30.01,NNW,338,15.2,15.2,61,0.00,,,0.02,VWS V14.01,2013-05-11 14:40:00,
2013-05-11 09:41:00,57.2,43.9,30.01,NW,315,5.3,15.2,61,0.00,,,0.02,VWS V14.01,2013-05-11 14:41:00,
2013-05-11 09:42:00,57.2,43.9,30.01,NW,315,5.3,5.3,61,0.00,,,0.02,VWS V14.01,2013-05-11 14:42:00,
2013-05-11 09:43:00,57.3,43.1,30.01,North,0,12.5,12.5,59,0.00,,,0.02,VWS V14.01,2013-05-11 14:43:00,
2013-05-11 09:44:00,57.3,43.1,30.01,North,0,12.5,12.5,59,0.00,,,0.02,VWS V14.01,2013-05-11 14:44:00,
2013-05-11 09:45:00,57.3,42.2,30.02,NNW,338,0.0,12.5,57,0.00,,,0.02,VWS V14.01,2013-05-11 14:45:00,
2013-05-11 09:46:00,57.3,42.2,30.02,NNW,338,0.0,0.0,57,0.00,,,0.02,VWS V14.01,2013-05-11 14:46:00,
2013-05-11 09:47:00,57.3,42.7,30.02,North,0,15.8,15.8,58,0.00,,,0.02,VWS V14.01,2013-05-11 14:47:00,
2013-05-11 09:48:00,57.7,43.0,30.01,North,0,15.8,15.8,58,0.00,,,0.02,VWS V14.01,2013-05-11 14:48:00,
2013-05-11 09:49:00,57.3,40.8,30.01,North,0,10.5,15.8,54,0.00,,,0.02,VWS V14.01,2013-05-11 14:49:00,
2013-05-11 09:50:00,57.3,40.8,30.02,North,0,10.5,10.5,54,0.00,,,0.02,VWS V14.01,2013-05-11 14:50:00,
2013-05-11 09:51:00,57.3,40.8,30.02,North,0,10.5,10.5,54,0.00,,,0.02,VWS V14.01,2013-05-11 14:51:00,
2013-05-11 09:52:00,56.8,38.9,30.02,NW,315,8.7,10.5,51,0.00,,,0.02,VWS V14.01,2013-05-11 14:52:00,
2013-05-11 09:53:00,56.8,38.9,30.02,NW,315,8.7,8.7,51,0.00,,,0.02,VWS V14.01,2013-05-11 14:53:00,
2013-05-11 09:54:00,56.3,38.4,30.02,NW,315,6.9,8.7,51,0.00,,,0.02,VWS V14.01,2013-05-11 14:54:00,
2013-05-11 09:55:00,56.3,38.4,30.02,NW,315,6.9,6.9,51,0.00,,,0.02,VWS V14.01,2013-05-11 14:55:00,
2013-05-11 09:56:00,55.7,36.8,30.02,WNW,292,2.9,6.9,49,0.00,,,0.02,VWS V14.01,2013-05-11 14:56:00,
2013-05-11 09:57:00,55.7,36.8,30.02,WNW,292,2.9,2.9,49,0.00,,,0.02,VWS V14.01,2013-05-11 14:57:00,
2013-05-11 09:58:00,55.9,38.5,30.02,WNW,292,6.0,6.0,52,0.00,,,0.02,VWS V14.01,2013-05-11 14:58:00,
2013-05-11 09:59:00,55.9,38.5,30.01,WNW,292,6.0,6.0,52,0.00,,,0.02,VWS V14.01,2013-05-11 14:59:00,
2013-05-11 10:00:00,55.9,38.5,30.01,WNW,292,6.0,6.0,52,0.00,,,0.02,VWS V14.01,2013-05-11 15:00:00,
2013-05-11 10:01:00,56.3,38.9,30.01,West,270,12.0,12.0,52,0.00,,,0.02,VWS V14.01,2013-05-11 15:01:00,
2013-05-11 10:02:00,56.4,37.0,30.01,WNW,292,13.4,13.4,48,0.00,,,0.02,VWS V14.01,2013-05-11 15:02:00,
2013-05-11 10:03:00,56.4,37.0,30.02,WNW,292,13.4,13.4,48,0.00,,,0.02,VWS V14.01,2013-05-11 15:03:00,
2013-05-11 10:04:00,56.4,37.0,30.01,NW,315,9.6,13.4,48,0.00,,,0.02,VWS V14.01,2013-05-11 15:04:00,
2013-05-11 10:05:00,56.4,37.0,30.01,NW,315,9.6,9.6,48,0.00,,,0.02,VWS V14.01,2013-05-11 15:05:00,
2013-05-11 10:06:00,56.3,37.4,30.01,NW,315,9.6,9.6,49,0.00,,,0.02,VWS V14.01,2013-05-11 15:06:00,
2013-05-11 10:07:00,56.3,35.8,30.01,WNW,292,19.6,19.6,46,0.00,,,0.02,VWS V14.01,2013-05-11 15:07:00,
2013-05-11 10:08:00,56.3,35.8,30.01,WNW,292,19.6,19.6,46,0.00,,,0.02,VWS V14.01,2013-05-11 15:08:00,
2013-05-11 10:09:00,55.9,35.4,30.01,WNW,292,10.5,19.6,46,0.00,,,0.02,VWS V14.01,2013-05-11 15:09:00,
2013-05-11 10:10:00,55.9,35.4,30.01,WNW,292,10.5,10.5,46,0.00,,,0.02,VWS V14.01,2013-05-11 15:10:00,
2013-05-11 10:11:00,55.7,34.1,30.01,NNW,338,15.8,15.8,44,0.00,,,0.02,VWS V14.01,2013-05-11 15:11:00,
2013-05-11 10:12:00,55.7,34.1,30.01,NNW,338,15.8,15.8,44,0.00,,,0.02,VWS V14.01,2013-05-11 15:12:00,
2013-05-11 10:13:00,55.4,34.4,30.01,NNW,338,8.5,15.8,45,0.00,,,0.02,VWS V14.01,2013-05-11 15:13:00,
2013-05-11 10:14:00,55.4,34.4,30.02,NNW,338,8.5,8.5,45,0.00,,,0.02,VWS V14.01,2013-05-11 15:14:00,
2013-05-11 10:15:00,55.4,34.4,30.02,NNW,338,8.5,8.5,45,0.00,,,0.02,VWS V14.01,2013-05-11 15:15:00,
2013-05-11 10:16:00,55.5,35.6,30.02,North,0,16.1,16.1,47,0.00,,,0.02,VWS V14.01,2013-05-11 15:16:00,
2013-05-11 10:17:00,56.1,37.2,30.01,NW,315,18.5,18.5,49,0.00,,,0.02,VWS V14.01,2013-05-11 15:17:00,
2013-05-11 10:18:00,56.1,37.2,30.02,NW,315,18.5,18.5,49,0.00,,,0.02,VWS V14.01,2013-05-11 15:18:00,
2013-05-11 10:19:00,56.1,36.7,30.02,NW,315,12.0,18.5,48,0.00,,,0.02,VWS V14.01,2013-05-11 15:19:00,
2013-05-11 10:20:00,56.1,36.7,30.02,NW,315,12.0,12.0,48,0.00,,,0.02,VWS V14.01,2013-05-11 15:20:00,
2013-05-11 10:21:00,56.1,36.7,30.02,NW,315,12.0,12.0,48,0.00,,,0.02,VWS V14.01,2013-05-11 15:21:00,
2013-05-11 10:22:00,56.1,38.2,30.02,North,0,4.0,12.0,51,0.00,,,0.02,VWS V14.01,2013-05-11 15:22:00,
2013-05-11 10:23:00,56.1,38.2,30.02,North,0,4.0,4.0,51,0.00,,,0.02,VWS V14.01,2013-05-11 15:23:00,
2013-05-11 10:24:00,56.3,37.4,30.02,NNW,338,21.6,21.6,49,0.00,,,0.02,VWS V14.01,2013-05-11 15:24:00,
2013-05-11 10:25:00,56.3,37.4,30.02,NNW,338,21.6,21.6,49,0.00,,,0.02,VWS V14.01,2013-05-11 15:25:00,
2013-05-11 10:26:00,56.1,37.2,30.02,WNW,292,14.5,21.6,49,0.00,,,0.02,VWS V14.01,2013-05-11 15:26:00,
2013-05-11 10:27:00,56.1,37.2,30.02,WNW,292,14.5,14.5,49,0.00,,,0.02,VWS V14.01,2013-05-11 15:27:00,
2013-05-11 10:28:00,56.1,35.6,30.02,WNW,292,9.3,14.5,46,0.00,,,0.02,VWS V14.01,2013-05-11 15:28:00,
2013-05-11 10:29:00,56.1,35.6,30.03,WNW,292,9.3,9.3,46,0.00,,,0.02,VWS V14.01,2013-05-11 15:29:00,
2013-05-11 10:30:00,56.1,35.6,30.03,WNW,292,9.3,9.3,46,0.00,,,0.02,VWS V14.01,2013-05-11 15:30:00,
2013-05-11 10:31:00,56.3,34.7,30.02,NW,315,14.5,14.5,44,0.00,,,0.02,VWS V14.01,2013-05-11 15:31:00,
2013-05-11 10:32:00,56.1,34.5,30.02,NNW,338,21.6,21.6,44,0.00,,,0.02,VWS V14.01,2013-05-11 15:32:00,
2013-05-11 10:33:00,56.1,32.7,30.02,NNW,338,21.6,21.6,41,0.00,,,0.02,VWS V14.01,2013-05-11 15:33:00,
2013-05-11 10:34:00,55.9,35.4,30.03,WNW,292,16.3,21.6,46,0.00,,,0.02,VWS V14.01,2013-05-11 15:34:00,
2013-05-11 10:35:00,55.9,35.4,30.03,WNW,292,16.3,16.3,46,0.00,,,0.02,VWS V14.01,2013-05-11 15:35:00,
2013-05-11 10:36:00,55.9,35.4,30.02,WNW,292,16.3,16.3,46,0.00,,,0.02,VWS V14.01,2013-05-11 15:36:00,
2013-05-11 10:37:00,55.4,32.1,30.03,North,0,19.9,19.9,41,0.00,,,0.02,VWS V14.01,2013-05-11 15:37:00,
2013-05-11 10:38:00,55.4,32.1,30.02,North,0,19.9,19.9,41,0.00,,,0.02,VWS V14.01,2013-05-11 15:38:00,
2013-05-11 10:39:00,55.4,32.7,30.02,NW,315,10.9,19.9,42,0.00,,,0.02,VWS V14.01,2013-05-11 15:39:00,
2013-05-11 10:40:00,55.4,32.7,30.02,NW,315,10.9,10.9,42,0.00,,,0.02,VWS V14.01,2013-05-11 15:40:00,
2013-05-11 10:41:00,55.4,33.3,30.03,NNW,338,15.2,15.2,43,0.00,,,0.02,VWS V14.01,2013-05-11 15:41:00,
2013-05-11 10:42:00,55.4,33.3,30.03,NNW,338,15.2,15.2,43,0.00,,,0.02,VWS V14.01,2013-05-11 15:42:00,
2013-05-11 10:43:00,55.5,32.2,30.03,NW,315,12.5,15.2,41,0.00,,,0.02,VWS V14.01,2013-05-11 15:43:00,
2013-05-11 10:44:00,55.5,32.2,30.03,NW,315,12.5,12.5,41,0.00,,,0.02,VWS V14.01,2013-05-11 15:44:00,
2013-05-11 10:45:00,55.7,32.4,30.03,NW,315,10.9,10.9,41,0.00,,,0.02,VWS V14.01,2013-05-11 15:45:00,
2013-05-11 10:46:00,55.7,32.4,30.03,NW,315,10.9,10.9,41,0.00,,,0.02,VWS V14.01,2013-05-11 15:46:00,
2013-05-11 10:47:00,55.5,31.0,30.03,North,0,26.8,26.8,39,0.00,,,0.02,VWS V14.01,2013-05-11 15:47:00,
2013-05-11 10:48:00,55.2,30.1,30.03,North,0,10.5,26.8,38,0.00,,,0.02,VWS V14.01,2013-05-11 15:48:00,
2013-05-11 10:49:00,55.2,30.1,30.03,North,0,10.5,10.5,38,0.00,,,0.02,VWS V14.01,2013-05-11 15:49:00,
2013-05-11 10:50:00,55.2,31.3,30.02,NW,315,15.8,15.8,40,0.00,,,0.02,VWS V14.01,2013-05-11 15:50:00,
2013-05-11 10:51:00,55.0,29.2,30.03,NW,315,15.8,15.8,37,0.00,,,0.02,VWS V14.01,2013-05-11 15:51:00,
2013-05-11 10:52:00,55.0,29.2,30.03,NW,315,15.8,15.8,37,0.00,,,0.02,VWS V14.01,2013-05-11 15:52:00,
2013-05-11 10:53:00,55.0,31.1,30.04,North,0,12.3,15.8,40,0.00,,,0.02,VWS V14.01,2013-05-11 15:53:00,
2013-05-11 10:54:00,55.0,31.1,30.03,North,0,12.3,12.3,40,0.00,,,0.02,VWS V14.01,2013-05-11 15:54:00,
2013-05-11 10:55:00,55.2,31.3,30.04,North,0,19.9,19.9,40,0.00,,,0.02,VWS V14.01,2013-05-11 15:55:00,
2013-05-11 10:56:00,55.2,31.3,30.03,North,0,19.9,19.9,40,0.00,,,0.02,VWS V14.01,2013-05-11 15:56:00,
2013-05-11 10:57:00,55.2,31.9,30.04,NNW,338,15.4,19.9,41,0.00,,,0.02,VWS V14.01,2013-05-11 15:57:00,
2013-05-11 10:58:00,55.2,31.9,30.03,NNW,338,15.4,15.4,41,0.00,,,0.02,VWS V14.01,2013-05-11 15:58:00,
2013-05-11 10:59:00,55.5,31.0,30.03,NW,315,27.0,27.0,39,0.00,,,0.02,VWS V14.01,2013-05-11 15:59:00,
2013-05-11 11:00:00,55.5,31.0,30.03,NW,315,14.7,27.0,39,0.00,,,0.06,VWS V14.01,2013-05-11 16:00:00,
2013-05-11 11:01:00,55.5,31.0,30.03,NW,315,14.7,14.7,39,0.00,,,0.02,VWS V14.01,2013-05-11 16:01:00,
2013-05-11 11:02:00,55.7,31.1,30.04,NNW,338,19.4,19.4,39,0.00,,,0.02,VWS V14.01,2013-05-11 16:02:00,
2013-05-11 11:03:00,55.7,31.1,30.04,NNW,338,19.4,19.4,39,0.00,,,0.02,VWS V14.01,2013-05-11 16:03:00,
2013-05-11 11:04:00,55.9,31.3,30.03,NNW,338,10.9,19.4,39,0.00,,,0.02,VWS V14.01,2013-05-11 16:04:00,
2013-05-11 11:05:00,55.9,31.3,30.04,NNW,338,10.9,10.9,39,0.00,,,0.02,VWS V14.01,2013-05-11 16:05:00,
2013-05-11 11:06:00,55.9,32.0,30.03,West,270,12.3,12.3,40,0.00,,,0.02,VWS V14.01,2013-05-11 16:06:00,
2013-05-11 11:07:00,55.9,32.0,30.03,West,270,12.3,12.3,40,0.00,,,0.02,VWS V14.01,2013-05-11 16:07:00,
2013-05-11 11:08:00,56.1,32.7,30.04,NNE,22,10.9,12.3,41,0.00,,,0.02,VWS V14.01,2013-05-11 16:08:00,
2013-05-11 11:09:00,56.1,32.7,30.03,NNE,22,10.9,10.9,41,0.00,,,0.02,VWS V14.01,2013-05-11 16:09:00,
2013-05-11 11:10:00,55.9,31.3,30.03,NW,315,22.1,22.1,39,0.00,,,0.02,VWS V14.01,2013-05-11 16:10:00,
2013-05-11 11:11:00,55.9,31.3,30.03,NW,315,22.1,22.1,39,0.00,,,0.02,VWS V14.01,2013-05-11 16:11:00,
2013-05-11 11:12:00,55.9,31.3,30.04,NNW,338,19.6,22.1,39,0.00,,,0.02,VWS V14.01,2013-05-11 16:12:00,
2013-05-11 11:13:00,55.9,32.0,30.04,NNW,338,19.6,19.6,40,0.00,,,0.02,VWS V14.01,2013-05-11 16:13:00,
2013-05-11 11:14:00,55.9,32.0,30.04,NNW,338,19.6,19.6,40,0.00,,,0.02,VWS V14.01,2013-05-11 16:14:00,
2013-05-11 11:15:00,55.7,32.4,30.04,North,0,12.0,12.0,41,0.00,,,0.02,VWS V14.01,2013-05-11 16:15:00,
2013-05-11 11:16:00,55.7,32.4,30.04,North,0,12.0,12.0,41,0.00,,,0.02,VWS V14.01,2013-05-11 16:16:00,
2013-05-11 11:17:00,55.7,32.4,30.04,NNE,22,18.3,18.3,41,0.00,,,0.02,VWS V14.01,2013-05-11 16:17:00,
2013-05-11 11:18:00,55.7,32.4,30.04,NNE,22,18.3,18.3,41,0.00,,,0.02,VWS V14.01,2013-05-11 16:18:00,
2013-05-11 11:19:00,55.5,31.6,30.04,North,0,16.5,18.3,40,0.00,,,0.02,VWS V14.01,2013-05-11 16:19:00,
2013-05-11 11:20:00,55.5,31.6,30.03,North,0,16.5,16.5,40,0.00,,,0.02,VWS V14.01,2013-05-11 16:20:00,
2013-05-11 11:21:00,55.5,32.2,30.03,NNW,338,25.9,25.9,41,0.00,,,0.02,VWS V14.01,2013-05-11 16:21:00,
2013-05-11 11:22:00,55.5,32.8,30.04,NNW,338,10.5,25.9,42,0.00,,,0.02,VWS V14.01,2013-05-11 16:22:00,
2013-05-11 11:23:00,55.5,32.8,30.04,NNW,338,10.5,10.5,42,0.00,,,0.02,VWS V14.01,2013-05-11 16:23:00,
2013-05-11 11:24:00,55.4,32.1,30.04,NNW,338,11.1,11.1,41,0.00,,,0.02,VWS V14.01,2013-05-11 16:24:00,
2013-05-11 11:25:00,55.4,32.1,30.04,NNW,338,11.1,11.1,41,0.00,,,0.02,VWS V14.01,2013-05-11 16:25:00,
2013-05-11 11:26:00,55.7,31.1,30.04,WNW,292,14.9,14.9,39,0.00,,,0.02,VWS V14.01,2013-05-11 16:26:00,
2013-05-11 11:27:00,55.7,31.1,30.04,WNW,292,14.9,14.9,39,0.00,,,0.02,VWS V14.01,2013-05-11 16:27:00,
2013-05-11 11:28:00,55.7,32.4,30.04,NNW,338,19.6,19.6,41,0.00,,,0.02,VWS V14.01,2013-05-11 16:28:00,
2013-05-11 11:29:00,55.7,32.4,30.04,NNW,338,19.6,19.6,41,0.00,,,0.02,VWS V14.01,2013-05-11 16:29:00,
2013-05-11 11:30:00,55.9,33.2,30.04,NNW,338,21.6,21.6,42,0.00,,,0.02,VWS V14.01,2013-05-11 16:30:00,
2013-05-11 11:31:00,55.9,33.2,30.04,NNW,338,21.6,21.6,42,0.00,,,0.02,VWS V14.01,2013-05-11 16:31:00,
2013-05-11 11:32:00,55.9,33.2,30.05,NNW,338,13.1,21.6,42,0.00,,,0.02,VWS V14.01,2013-05-11 16:32:00,
2013-05-11 11:33:00,55.9,33.2,30.05,NNW,338,13.1,13.1,42,0.00,,,0.02,VWS V14.01,2013-05-11 16:33:00,
2013-05-11 11:34:00,55.9,31.3,30.04,NNW,338,17.0,17.0,39,0.00,,,0.02,VWS V14.01,2013-05-11 16:34:00,
2013-05-11 11:35:00,55.9,31.3,30.04,NNW,338,17.0,17.0,39,0.00,,,0.02,VWS V14.01,2013-05-11 16:35:00,
2013-05-11 11:36:00,55.9,31.3,30.04,NNW,338,24.8,24.8,39,0.00,,,0.02,VWS V14.01,2013-05-11 16:36:00,
2013-05-11 11:37:00,55.2,32.5,30.04,North,0,15.2,24.8,42,0.00,,,0.02,VWS V14.01,2013-05-11 16:37:00,
2013-05-11 11:38:00,55.2,32.5,30.04,North,0,15.2,15.2,42,0.00,,,0.02,VWS V14.01,2013-05-11 16:38:00,
2013-05-11 11:39:00,55.2,32.5,30.05,North,0,15.6,15.6,42,0.00,,,0.02,VWS V14.01,2013-05-11 16:39:00,
2013-05-11 11:40:00,55.2,32.5,30.05,North,0,15.6,15.6,42,0.00,,,0.02,VWS V14.01,2013-05-11 16:40:00,
2013-05-11 11:41:00,55.2,33.1,30.05,North,0,19.4,19.4,43,0.00,,,0.02,VWS V14.01,2013-05-11 16:41:00,
2013-05-11 11:42:00,55.2,33.1,30.05,North,0,19.4,19.4,43,0.00,,,0.02,VWS V14.01,2013-05-11 16:42:00,
2013-05-11 11:43:00,55.2,33.1,30.05,NNW,338,29.0,29.0,43,0.00,,,0.02,VWS V14.01,2013-05-11 16:43:00,
2013-05-11 11:44:00,55.2,33.7,30.05,NNW,338,6.0,29.0,44,0.00,,,0.02,VWS V14.01,2013-05-11 16:44:00,
2013-05-11 11:45:00,55.2,33.7,30.05,NNW,338,6.0,6.0,44,0.00,,,0.02,VWS V14.01,2013-05-11 16:45:00,
2013-05-11 11:46:00,55.5,34.0,30.05,WNW,292,16.5,16.5,44,0.00,,,0.02,VWS V14.01,2013-05-11 16:46:00,
2013-05-11 11:47:00,55.5,34.0,30.05,WNW,292,16.5,16.5,44,0.00,,,0.02,VWS V14.01,2013-05-11 16:47:00,
2013-05-11 11:48:00,55.7,33.6,30.05,WNW,292,6.0,16.5,43,0.00,,,0.02,VWS V14.01,2013-05-11 16:48:00,
2013-05-11 11:49:00,55.7,33.6,30.05,WNW,292,6.0,6.0,43,0.00,,,0.02,VWS V14.01,2013-05-11 16:49:00,
2013-05-11 11:50:00,55.7,33.6,30.05,WNW,292,6.0,6.0,43,0.00,,,0.02,VWS V14.01,2013-05-11 16:50:00,
2013-05-11 11:51:00,55.7,32.4,30.05,NNE,22,14.3,14.3,41,0.00,,,0.02,VWS V14.01,2013-05-11 16:51:00,
2013-05-11 11:52:00,55.5,32.2,30.05,NNE,22,14.3,14.3,41,0.00,,,0.02,VWS V14.01,2013-05-11 16:52:00,
2013-05-11 11:53:00,55.5,32.8,30.05,NNW,338,6.0,14.3,42,0.00,,,0.02,VWS V14.01,2013-05-11 16:53:00,
2013-05-11 11:54:00,55.5,32.8,30.05,NNW,338,6.0,6.0,42,0.00,,,0.02,VWS V14.01,2013-05-11 16:54:00,
2013-05-11 11:55:00,55.5,32.8,30.05,NNW,338,6.0,6.0,42,0.00,,,0.02,VWS V14.01,2013-05-11 16:55:00,
2013-05-11 11:56:00,55.5,31.6,30.05,North,0,16.1,16.1,40,0.00,,,0.02,VWS V14.01,2013-05-11 16:56:00,
2013-05-11 11:57:00,55.2,31.3,30.05,NW,315,8.5,16.1,40,0.00,,,0.02,VWS V14.01,2013-05-11 16:57:00,
2013-05-11 11:58:00,55.2,31.3,30.05,NW,315,8.5,8.5,40,0.00,,,0.02,VWS V14.01,2013-05-11 16:58:00,
2013-05-11 11:59:00,55.2,31.3,30.05,North,0,17.6,17.6,40,0.00,,,0.02,VWS V14.01,2013-05-11 16:59:00,
2013-05-11 12:00:00,55.2,31.3,30.05,North,0,17.6,17.6,40,0.00,,,0.02,VWS V14.01,2013-05-11 17:00:00,
2013-05-11 12:01:00,55.2,31.3,30.05,North,0,17.6,17.6,40,0.00,,,0.02,VWS V14.01,2013-05-11 17:01:00,
2013-05-11 12:02:00,55.2,33.1,30.05,NW,315,19.9,19.9,43,0.00,,,0.02,VWS V14.01,2013-05-11 17:02:00,
2013-05-11 12:03:00,55.2,33.1,30.06,NW,315,19.9,19.9,43,0.00,,,0.02,VWS V14.01,2013-05-11 17:03:00,
2013-05-11 12:04:00,55.5,34.0,30.05,WNW,292,14.9,19.9,44,0.00,,,0.02,VWS V14.01,2013-05-11 17:04:00,
2013-05-11 12:05:00,55.5,34.0,30.05,WNW,292,14.9,14.9,44,0.00,,,0.02,VWS V14.01,2013-05-11 17:05:00,
2013-05-11 12:06:00,55.4,32.7,30.05,NNW,338,17.6,17.6,42,0.00,,,0.02,VWS V14.01,2013-05-11 17:06:00,
2013-05-11 12:07:00,55.4,32.7,30.05,NNW,338,17.6,17.6,42,0.00,,,0.02,VWS V14.01,2013-05-11 17:07:00,
2013-05-11 12:08:00,55.2,31.9,30.05,NNW,338,9.1,17.6,41,0.00,,,0.02,VWS V14.01,2013-05-11 17:08:00,
2013-05-11 12:09:00,55.2,31.9,30.06,NNW,338,9.1,9.1,41,0.00,,,0.02,VWS V14.01,2013-05-11 17:09:00,
2013-05-11 12:10:00,55.2,31.9,30.06,NNW,338,9.1,9.1,41,0.00,,,0.02,VWS V14.01,2013-05-11 17:10:00,
2013-05-11 12:11:00,55.5,34.5,30.06,North,0,18.1,18.1,45,0.00,,,0.02,VWS V14.01,2013-05-11 17:11:00,
2013-05-11 12:12:00,55.9,33.2,30.06,WNW,292,20.3,20.3,42,0.00,,,0.02,VWS V14.01,2013-05-11 17:12:00,
2013-05-11 12:13:00,55.9,33.2,30.05,WNW,292,20.3,20.3,42,0.00,,,0.02,VWS V14.01,2013-05-11 17:13:00,
2013-05-11 12:14:00,55.5,34.0,30.06,NW,315,15.4,20.3,44,0.00,,,0.02,VWS V14.01,2013-05-11 17:14:00,
2013-05-11 12:15:00,55.5,34.0,30.06,NW,315,15.4,15.4,44,0.00,,,0.02,VWS V14.01,2013-05-11 17:15:00,
2013-05-11 12:16:00,55.5,34.0,30.06,NW,315,15.4,15.4,44,0.00,,,0.02,VWS V14.01,2013-05-11 17:16:00,
2013-05-11 12:17:00,55.5,33.4,30.06,NW,315,14.3,15.4,43,0.00,,,0.02,VWS V14.01,2013-05-11 17:17:00,
2013-05-11 12:18:00,55.5,33.4,30.06,NW,315,14.3,14.3,43,0.00,,,0.02,VWS V14.01,2013-05-11 17:18:00,
2013-05-11 12:19:00,55.9,36.0,30.06,NNW,338,26.6,26.6,47,0.00,,,0.02,VWS V14.01,2013-05-11 17:19:00,
2013-05-11 12:20:00,55.9,36.0,30.06,NNW,338,26.6,26.6,47,0.00,,,0.02,VWS V14.01,2013-05-11 17:20:00,
2013-05-11 12:21:00,55.9,33.2,30.06,WNW,292,20.1,20.1,42,0.00,,,0.02,VWS V14.01,2013-05-11 17:21:00,
2013-05-11 12:22:00,55.7,34.7,30.06,NW,315,7.3,20.1,45,0.00,,,0.02,VWS V14.01,2013-05-11 17:22:00,
2013-05-11 12:23:00,55.7,34.7,30.06,NW,315,7.3,7.3,45,0.00,,,0.02,VWS V14.01,2013-05-11 17:23:00,
2013-05-11 12:24:00,55.5,33.4,30.06,NW,315,23.2,23.2,43,0.00,,,0.02,VWS V14.01,2013-05-11 17:24:00,
2013-05-11 12:25:00,55.5,33.4,30.06,NW,315,23.2,23.2,43,0.00,,,0.02,VWS V14.01,2013-05-11 17:25:00,
2013-05-11 12:26:00,55.4,32.1,30.06,WNW,292,21.2,21.2,41,0.00,,,0.02,VWS V14.01,2013-05-11 17:26:00,
2013-05-11 12:27:00,55.2,33.7,30.06,North,0,14.0,21.2,44,0.00,,,0.02,VWS V14.01,2013-05-11 17:27:00,
2013-05-11 12:28:00,55.2,33.7,30.07,North,0,14.0,14.0,44,0.00,,,0.02,VWS V14.01,2013-05-11 17:28:00,
2013-05-11 12:29:00,55.2,33.7,30.07,NW,315,18.1,18.1,44,0.00,,,0.02,VWS V14.01,2013-05-11 17:29:00,
2013-05-11 12:30:00,55.2,33.7,30.07,NW,315,18.1,18.1,44,0.00,,,0.02,VWS V14.01,2013-05-11 17:30:00,
2013-05-11 12:31:00,55.0,32.3,30.07,NNE,22,15.4,18.1,42,0.00,,,0.02,VWS V14.01,2013-05-11 17:31:00,
2013-05-11 12:32:00,55.0,32.3,30.07,NNE,22,15.4,15.4,42,0.00,,,0.02,VWS V14.01,2013-05-11 17:32:00,
2013-05-11 12:33:00,55.0,32.9,30.06,NNW,338,23.4,23.4,43,0.00,,,0.02,VWS V14.01,2013-05-11 17:33:00,
2013-05-11 12:34:00,55.0,32.3,30.07,NNW,338,19.4,23.4,42,0.00,,,0.02,VWS V14.01,2013-05-11 17:34:00,
2013-05-11 12:35:00,55.0,32.3,30.07,NNW,338,19.4,19.4,42,0.00,,,0.02,VWS V14.01,2013-05-11 17:35:00,
2013-05-11 12:36:00,55.0,32.9,30.06,NW,315,22.1,22.1,43,0.00,,,0.02,VWS V14.01,2013-05-11 17:36:00,
2013-05-11 12:37:00,55.0,32.9,30.06,NW,315,22.1,22.1,43,0.00,,,0.02,VWS V14.01,2013-05-11 17:37:00,
2013-05-11 12:38:00,55.0,32.9,30.06,North,0,13.4,22.1,43,0.00,,,0.02,VWS V14.01,2013-05-11 17:38:00,
2013-05-11 12:39:00,54.6,32.6,30.06,North,0,13.4,13.4,43,0.00,,,0.02,VWS V14.01,2013-05-11 17:39:00,
2013-05-11 12:40:00,54.6,32.6,30.06,North,0,13.4,13.4,43,0.00,,,0.02,VWS V14.01,2013-05-11 17:40:00,
2013-05-11 12:41:00,55.0,34.6,30.07,NNW,338,10.7,10.7,46,0.00,,,0.02,VWS V14.01,2013-05-11 17:41:00,
2013-05-11 12:42:00,55.2,35.3,30.07,NW,315,21.0,21.0,47,0.00,,,0.02,VWS V14.01,2013-05-11 17:42:00,
2013-05-11 12:43:00,55.2,35.3,30.07,NW,315,21.0,21.0,47,0.00,,,0.02,VWS V14.01,2013-05-11 17:43:00,
2013-05-11 12:44:00,55.2,34.2,30.07,North,0,17.6,21.0,45,0.00,,,0.02,VWS V14.01,2013-05-11 17:44:00,
2013-05-11 12:45:00,55.2,34.2,30.07,North,0,17.6,17.6,45,0.00,,,0.02,VWS V14.01,2013-05-11 17:45:00,
2013-05-11 12:46:00,55.2,34.2,30.07,North,0,17.6,17.6,45,0.00,,,0.02,VWS V14.01,2013-05-11 17:46:00,
2013-05-11 12:47:00,55.2,34.8,30.07,NW,315,9.6,17.6,46,0.00,,,0.02,VWS V14.01,2013-05-11 17:47:00,
2013-05-11 12:48:00,55.2,34.8,30.07,NW,315,9.6,9.6,46,0.00,,,0.02,VWS V14.01,2013-05-11 17:48:00,
2013-05-11 12:49:00,55.5,34.5,30.07,West,270,4.6,9.6,45,0.00,,,0.02,VWS V14.01,2013-05-11 17:49:00,
2013-05-11 12:50:00,55.5,34.5,30.07,West,270,4.6,4.6,45,0.00,,,0.02,VWS V14.01,2013-05-11 17:50:00,
2013-05-11 12:51:00,55.9,36.5,30.07,WNW,292,8.2,8.2,48,0.00,,,0.02,VWS V14.01,2013-05-11 17:51:00,
2013-05-11 12:52:00,55.9,36.5,30.07,WNW,292,8.2,8.2,48,0.00,,,0.02,VWS V14.01,2013-05-11 17:52:00,
2013-05-11 12:53:00,56.3,36.3,30.07,WNW,292,8.2,8.2,47,0.00,,,0.02,VWS V14.01,2013-05-11 17:53:00,
2013-05-11 12:54:00,56.3,36.3,30.07,WNW,292,8.2,8.2,47,0.00,,,0.02,VWS V14.01,2013-05-11 17:54:00,
2013-05-11 12:55:00,56.3,36.3,30.07,WNW,292,8.2,8.2,47,0.00,,,0.02,VWS V14.01,2013-05-11 17:55:00,
2013-05-11 12:56:00,56.1,33.3,30.07,NW,315,18.7,18.7,42,0.00,,,0.02,VWS V14.01,2013-05-11 17:56:00,
2013-05-11 12:57:00,55.9,34.9,30.07,WNW,292,5.3,18.7,45,0.00,,,0.02,VWS V14.01,2013-05-11 17:57:00,
2013-05-11 12:58:00,55.9,34.9,30.07,WNW,292,5.3,5.3,45,0.00,,,0.02,VWS V14.01,2013-05-11 17:58:00,
2013-05-11 12:59:00,56.1,34.5,30.06,NNW,338,15.4,15.4,44,0.00,,,0.02,VWS V14.01,2013-05-11 17:59:00,
2013-05-11 13:00:00,56.1,34.5,30.06,NNW,338,15.4,15.4,44,0.00,,,0.02,VWS V14.01,2013-05-11 18:00:00,
2013-05-11 13:01:00,56.1,34.5,30.07,NNW,338,15.4,15.4,44,0.00,,,0.02,VWS V14.01,2013-05-11 18:01:00,
2013-05-11 13:02:00,56.1,35.6,30.07,North,0,9.6,15.4,46,0.00,,,0.02,VWS V14.01,2013-05-11 18:02:00,
2013-05-11 13:03:00,56.1,35.6,30.07,North,0,9.6,9.6,46,0.00,,,0.02,VWS V14.01,2013-05-11 18:03:00,
2013-05-11 13:04:00,56.3,35.8,30.07,North,0,13.6,13.6,46,0.00,,,0.02,VWS V14.01,2013-05-11 18:04:00,
2013-05-11 13:05:00,56.3,35.8,30.07,North,0,13.6,13.6,46,0.00,,,0.02,VWS V14.01,2013-05-11 18:05:00,
2013-05-11 13:06:00,56.3,34.1,30.07,WNW,292,14.9,14.9,43,0.00,,,0.02,VWS V14.01,2013-05-11 18:06:00,
2013-05-11 13:07:00,56.3,34.1,30.07,WNW,292,14.9,14.9,43,0.00,,,0.02,VWS V14.01,2013-05-11 18:07:00,
2013-05-11 13:08:00,55.9,32.0,30.07,WNW,292,10.5,14.9,40,0.00,,,0.02,VWS V14.01,2013-05-11 18:08:00,
2013-05-11 13:09:00,55.9,32.0,30.07,WNW,292,10.5,10.5,40,0.00,,,0.02,VWS V14.01,2013-05-11 18:09:00,
2013-05-11 13:10:00,55.9,32.0,30.07,WNW,292,10.5,10.5,40,0.00,,,0.02,VWS V14.01,2013-05-11 18:10:00,
2013-05-11 13:11:00,55.9,33.8,30.07,NW,315,8.5,8.5,43,0.00,,,0.02,VWS V14.01,2013-05-11 18:11:00,
2013-05-11 13:12:00,55.5,32.2,30.07,North,0,6.7,8.5,41,0.00,,,0.02,VWS V14.01,2013-05-11 18:12:00,
2013-05-11 13:13:00,55.5,32.2,30.07,North,0,6.7,6.7,41,0.00,,,0.02,VWS V14.01,2013-05-11 18:13:00,
2013-05-11 13:14:00,55.5,32.2,30.07,NNW,338,17.6,17.6,41,0.00,,,0.02,VWS V14.01,2013-05-11 18:14:00,
2013-05-11 13:15:00,55.5,32.2,30.07,NNW,338,17.6,17.6,41,0.00,,,0.02,VWS V14.01,2013-05-11 18:15:00,
2013-05-11 13:16:00,55.4,32.1,30.07,NNW,338,17.6,17.6,41,0.00,,,0.02,VWS V14.01,2013-05-11 18:16:00,
2013-05-11 13:17:00,55.7,34.1,30.07,WNW,292,10.5,17.6,44,0.00,,,0.02,VWS V14.01,2013-05-11 18:17:00,
2013-05-11 13:18:00,55.7,34.1,30.07,WNW,292,10.5,10.5,44,0.00,,,0.02,VWS V14.01,2013-05-11 18:18:00,
2013-05-11 13:19:00,56.1,33.9,30.07,WNW,292,18.7,18.7,43,0.00,,,0.02,VWS V14.01,2013-05-11 18:19:00,
2013-05-11 13:20:00,56.1,33.9,30.07,WNW,292,18.7,18.7,43,0.00,,,0.02,VWS V14.01,2013-05-11 18:20:00,
2013-05-11 13:21:00,56.4,34.2,30.07,WNW,292,13.8,18.7,43,0.00,,,0.02,VWS V14.01,2013-05-11 18:21:00,
2013-05-11 13:22:00,56.4,34.2,30.07,WNW,292,13.8,13.8,43,0.00,,,0.02,VWS V14.01,2013-05-11 18:22:00,
2013-05-11 13:23:00,56.4,33.6,30.07,NW,315,22.8,22.8,42,0.00,,,0.02,VWS V14.01,2013-05-11 18:23:00,
2013-05-11 13:24:00,56.4,33.6,30.07,NNW,338,15.2,22.8,42,0.00,,,0.02,VWS V14.01,2013-05-11 18:24:00,
2013-05-11 13:25:00,56.4,33.6,30.07,NNW,338,15.2,15.2,42,0.00,,,0.02,VWS V14.01,2013-05-11 18:25:00,
2013-05-11 13:26:00,56.4,35.3,30.08,NW,315,10.5,15.2,45,0.00,,,0.02,VWS V14.01,2013-05-11 18:26:00,
2013-05-11 13:27:00,56.4,35.3,30.08,NW,315,10.5,10.5,45,0.00,,,0.02,VWS V14.01,2013-05-11 18:27:00,
2013-05-11 13:28:00,56.8,34.6,30.07,WNW,292,10.9,10.9,43,0.00,,,0.02,VWS V14.01,2013-05-11 18:28:00,
2013-05-11 13:29:00,56.8,34.6,30.07,WNW,292,10.9,10.9,43,0.00,,,0.02,VWS V14.01,2013-05-11 18:29:00,
2013-05-11 13:30:00,56.8,34.6,30.07,WNW,292,10.9,10.9,43,0.00,,,0.02,VWS V14.01,2013-05-11 18:30:00,
2013-05-11 13:43:00,56.1,33.4,12.80,NW,315,0.0,18.8,42,99.99,,,0.02,VWS V14.01,2013-05-11 18:43:00,
2013-05-11 13:48:00,54.1,33.8,30.09,NNW,338,16.7,22.5,46,0.00,,,0.02,VWS V14.01,2013-05-11 18:48:00,
2013-05-11 13:53:00,55.4,34.4,30.09,North,0,9.8,22.5,45,0.00,,,0.02,VWS V14.01,2013-05-11 18:53:00,
2013-05-11 13:58:00,55.4,34.4,30.09,NNW,338,17.6,23.2,45,0.00,,,0.02,VWS V14.01,2013-05-11 18:58:00,
2013-05-11 14:03:00,55.2,34.2,30.09,NW,315,3.1,3.1,45,0.00,,,0.02,VWS V14.01,2013-05-11 19:03:00,
2013-05-11 14:08:00,55.2,33.7,30.09,NW,315,15.4,15.4,44,0.00,,,0.02,VWS V14.01,2013-05-11 19:08:00,
2013-05-11 14:13:00,54.3,32.9,30.09,NNW,338,16.5,16.5,44,0.00,,,0.02,VWS V14.01,2013-05-11 19:13:00,
2013-05-11 14:18:00,53.4,31.5,30.09,WNW,292,21.2,21.2,43,0.00,,,0.02,VWS V14.01,2013-05-11 19:18:00,
2013-05-11 14:23:00,53.9,33.6,30.10,West,270,18.7,18.7,46,0.00,,,0.02,VWS V14.01,2013-05-11 19:23:00,
2013-05-11 14:28:00,55.0,32.9,30.09,NNW,338,13.8,13.8,43,0.00,,,0.02,VWS V14.01,2013-05-11 19:28:00,
2013-05-11 14:33:00,55.5,32.2,30.09,WNW,292,16.3,16.3,41,0.00,,,0.02,VWS V14.01,2013-05-11 19:33:00,
2013-05-11 14:38:00,56.1,33.9,30.10,WNW,292,13.1,13.1,43,0.00,,,0.02,VWS V14.01,2013-05-11 19:38:00,
2013-05-11 14:43:00,56.4,33.0,30.09,NNW,338,18.3,18.3,41,0.00,,,0.02,VWS V14.01,2013-05-11 19:43:00,
2013-05-11 14:48:00,57.0,32.9,30.10,North,0,6.0,6.0,40,0.00,,,0.02,VWS V14.01,2013-05-11 19:48:00,
2013-05-11 14:53:00,56.1,32.1,30.10,North,0,16.7,16.7,40,0.00,,,0.02,VWS V14.01,2013-05-11 19:53:00,
2013-05-11 14:58:00,54.6,31.4,30.10,WNW,292,18.5,18.5,41,0.00,,,0.02,VWS V14.01,2013-05-11 19:58:00,
2013-05-11 15:03:00,53.0,30.0,30.10,NNW,338,18.1,18.1,41,0.00,,,0.02,VWS V14.01,2013-05-11 20:03:00,
2013-05-11 15:08:00,51.9,30.1,30.10,WNW,292,13.8,13.8,43,0.00,,,0.02,VWS V14.01,2013-05-11 20:08:00,
2013-05-11 15:13:00,53.7,30.6,30.10,NNW,338,7.1,15.2,41,0.00,,,0.02,VWS V14.01,2013-05-11 20:13:00,
2013-05-11 15:18:00,55.0,32.3,30.10,WNW,292,16.3,16.3,42,0.00,,,0.02,VWS V14.01,2013-05-11 20:18:00,
2013-05-11 15:23:00,56.3,34.7,30.10,NW,315,12.7,12.7,44,0.00,,,0.02,VWS V14.01,2013-05-11 20:23:00,
2013-05-11 15:28:00,54.1,31.5,30.10,NNW,338,15.2,15.2,42,0.00,,,0.02,VWS V14.01,2013-05-11 20:28:00,
2013-05-11 15:33:00,53.4,31.5,30.10,WNW,292,5.1,5.1,43,0.00,,,0.02,VWS V14.01,2013-05-11 20:33:00,
2013-05-11 15:38:00,52.8,30.9,30.10,WNW,292,17.2,17.2,43,0.00,,,0.02,VWS V14.01,2013-05-11 20:38:00,
2013-05-11 15:43:00,52.8,32.1,30.10,NW,315,15.6,15.6,45,0.00,,,0.02,VWS V14.01,2013-05-11 20:43:00,
2013-05-11 15:48:00,53.6,31.7,30.11,NNW,338,16.5,16.5,43,0.00,,,0.02,VWS V14.01,2013-05-11 20:48:00,
2013-05-11 15:53:00,55.5,32.8,30.11,North,0,9.8,9.8,42,0.00,,,0.02,VWS V14.01,2013-05-11 20:53:00,
2013-05-11 15:58:00,56.1,31.5,30.11,WNW,292,8.5,8.5,39,0.00,,,0.02,VWS V14.01,2013-05-11 20:58:00,
2013-05-11 16:03:00,55.0,30.5,30.11,NNW,338,12.7,12.7,39,0.00,,,0.02,VWS V14.01,2013-05-11 21:03:00,
2013-05-11 16:08:00,54.8,32.2,30.11,WNW,292,8.9,8.9,42,0.00,,,0.02,VWS V14.01,2013-05-11 21:08:00,
2013-05-11 16:13:00,52.8,30.9,30.12,WNW,292,13.6,13.6,43,0.00,,,0.02,VWS V14.01,2013-05-11 21:13:00,
2013-05-11 16:18:00,52.1,30.3,30.12,NNW,338,11.8,11.8,43,0.00,,,0.02,VWS V14.01,2013-05-11 21:18:00,
2013-05-11 16:23:00,51.6,29.9,30.11,NNE,22,5.5,5.5,43,0.00,,,0.02,VWS V14.01,2013-05-11 21:23:00,
2013-05-11 16:28:00,51.9,31.2,30.11,North,0,15.8,15.8,45,0.00,,,0.02,VWS V14.01,2013-05-11 21:28:00,
2013-05-11 16:33:00,51.9,31.2,30.11,NW,315,21.4,21.4,45,0.00,,,0.02,VWS V14.01,2013-05-11 21:33:00,
2013-05-11 16:38:00,52.8,32.6,30.12,NNW,338,16.7,16.7,46,0.00,,,0.02,VWS V14.01,2013-05-11 21:38:00,
2013-05-11 16:43:00,54.1,33.2,30.12,NNE,22,24.1,24.1,45,0.00,,,0.02,VWS V14.01,2013-05-11 21:43:00,
2013-05-11 16:48:00,53.2,33.0,30.12,NW,315,9.1,9.1,46,0.00,,,0.02,VWS V14.01,2013-05-11 21:48:00,
2013-05-11 16:53:00,51.9,32.3,30.13,NW,315,19.0,19.0,47,0.00,,,0.02,VWS V14.01,2013-05-11 21:53:00,
2013-05-11 16:58:00,52.8,32.1,30.12,WSW,248,8.7,8.7,45,0.00,,,0.02,VWS V14.01,2013-05-11 21:58:00,
2013-05-11 17:03:00,53.2,30.7,30.13,NNW,338,18.1,18.1,42,0.00,,,0.02,VWS V14.01,2013-05-11 22:03:00,
2013-05-11 17:08:00,53.4,30.3,30.13,NNW,338,14.7,14.7,41,0.00,,,0.02,VWS V14.01,2013-05-11 22:08:00,
2013-05-11 17:13:00,53.7,29.4,30.13,NNW,338,7.3,7.3,39,0.00,,,0.02,VWS V14.01,2013-05-11 22:13:00,
2013-05-11 17:18:00,53.4,29.1,30.13,WNW,292,6.9,6.9,39,0.00,,,0.02,VWS V14.01,2013-05-11 22:18:00,
2013-05-11 17:23:00,53.4,30.9,30.13,NNW,338,11.4,11.4,42,0.00,,,0.02,VWS V14.01,2013-05-11 22:23:00,
2013-05-11 17:28:00,53.7,32.3,30.13,North,0,6.2,6.2,44,0.00,,,0.02,VWS V14.01,2013-05-11 22:28:00,
2013-05-11 17:33:00,53.7,31.2,30.13,NNW,338,20.8,20.8,42,0.00,,,0.02,VWS V14.01,2013-05-11 22:33:00,
2013-05-11 17:38:00,51.6,29.9,30.13,NW,315,10.7,10.7,43,0.00,,,0.02,VWS V14.01,2013-05-11 22:38:00,
2013-05-11 17:43:00,50.7,29.0,30.13,NW,315,8.9,8.9,43,0.00,,,0.02,VWS V14.01,2013-05-11 22:43:00,
2013-05-11 17:48:00,50.5,30.5,30.14,North,0,10.9,10.9,46,0.00,,,0.02,VWS V14.01,2013-05-11 22:48:00,
2013-05-11 17:53:00,50.7,31.2,30.14,NW,315,11.4,11.4,47,0.00,,,0.02,VWS V14.01,2013-05-11 22:53:00,
2013-05-11 17:58:00,51.9,32.3,30.14,WNW,292,5.1,5.1,47,0.00,,,0.02,VWS V14.01,2013-05-11 22:58:00,
2013-05-11 18:03:00,52.5,31.8,30.13,NNW,338,10.0,10.0,45,0.00,,,0.02,VWS V14.01,2013-05-11 23:03:00,
2013-05-11 18:08:00,52.3,31.0,30.14,North,0,10.7,10.7,44,0.00,,,0.02,VWS V14.01,2013-05-11 23:08:00,
2013-05-11 18:13:00,52.1,31.4,30.14,NNW,338,9.1,9.1,45,0.00,,,0.02,VWS V14.01,2013-05-11 23:13:00,
2013-05-11 18:18:00,52.1,30.9,30.14,North,0,11.4,11.4,44,0.00,,,0.02,VWS V14.01,2013-05-11 23:18:00,
2013-05-11 18:23:00,51.6,31.0,30.14,NW,315,14.7,14.7,45,0.00,,,0.02,VWS V14.01,2013-05-11 23:23:00,
2013-05-11 18:28:00,51.9,31.2,30.14,NNW,338,11.6,11.6,45,0.00,,,0.02,VWS V14.01,2013-05-11 23:28:00,
2013-05-11 18:33:00,52.1,30.3,30.13,NW,315,5.5,5.5,43,0.00,,,0.02,VWS V14.01,2013-05-11 23:33:00,
2013-05-11 18:38:00,52.1,30.3,30.14,WNW,292,10.7,10.7,43,0.00,,,0.02,VWS V14.01,2013-05-11 23:38:00,
2013-05-11 18:43:00,51.9,29.5,30.14,WNW,292,6.4,6.4,42,0.00,,,0.02,VWS V14.01,2013-05-11 23:43:00,
2013-05-11 18:48:00,50.7,29.0,30.14,NW,315,7.6,7.6,43,0.00,,,0.02,VWS V14.01,2013-05-11 23:48:00,
2013-05-11 18:53:00,50.1,29.0,30.14,WNW,292,8.7,8.7,44,0.00,,,0.02,VWS V14.01,2013-05-11 23:53:00,
2013-05-11 18:58:00,49.6,28.6,30.14,NNW,338,6.7,6.7,44,0.00,,,0.02,VWS V14.01,2013-05-11 23:58:00,
2013-05-11 19:03:00,49.8,29.3,30.14,NNW,338,0.6,0.6,45,0.00,,,0.02,VWS V14.01,2013-05-12 00:03:00,
2013-05-11 19:08:00,49.8,29.9,30.14,NNW,338,7.3,7.3,46,0.00,,,0.02,VWS V14.01,2013-05-12 00:08:00,
2013-05-11 19:13:00,49.6,30.7,30.14,NNW,338,8.9,8.9,48,0.00,,,0.02,VWS V14.01,2013-05-12 00:13:00,
2013-05-11 19:18:00,49.2,30.4,30.14,NNE,22,6.7,6.7,48,0.00,,,0.02,VWS V14.01,2013-05-12 00:18:00,
2013-05-11 19:23:00,49.6,30.2,30.14,NNW,338,1.1,1.1,47,0.00,,,0.02,VWS V14.01,2013-05-12 00:23:00,
2013-05-11 19:28:00,49.6,30.2,30.14,WNW,292,5.3,5.3,47,0.00,,,0.02,VWS V14.01,2013-05-12 00:28:00,
2013-05-11 19:33:00,49.8,29.9,30.14,NW,315,5.8,5.8,46,0.00,,,0.02,VWS V14.01,2013-05-12 00:33:00,
2013-05-11 19:38:00,49.6,29.7,30.15,WNW,292,1.5,1.5,46,0.00,,,0.02,VWS V14.01,2013-05-12 00:38:00,
2013-05-11 19:43:00,49.2,29.3,30.14,NNW,338,0.0,0.0,46,0.00,,,0.02,VWS V14.01,2013-05-12 00:43:00,
2013-05-11 19:48:00,49.1,29.2,30.14,WNW,292,6.0,6.0,46,0.00,,,0.02,VWS V14.01,2013-05-12 00:48:00,
2013-05-11 19:53:00,48.7,28.3,30.14,NNW,338,7.1,7.1,45,0.00,,,0.02,VWS V14.01,2013-05-12 00:53:00,
2013-05-11 19:58:00,48.3,27.4,30.14,North,0,6.4,6.4,44,0.00,,,0.02,VWS V14.01,2013-05-12 00:58:00,
2013-05-11 20:03:00,48.0,27.1,30.14,North,0,0.6,0.6,44,0.00,,,0.02,VWS V14.01,2013-05-12 01:03:00,
2013-05-11 20:08:00,47.4,26.6,30.14,WNW,292,4.4,4.4,44,0.00,,,0.02,VWS V14.01,2013-05-12 01:08:00,
2013-05-11 20:13:00,47.1,26.3,30.14,WNW,292,8.2,8.2,44,0.00,,,0.02,VWS V14.01,2013-05-12 01:13:00,
2013-05-11 20:18:00,46.9,26.7,30.15,WNW,292,2.6,2.6,45,0.00,,,0.02,VWS V14.01,2013-05-12 01:18:00,
2013-05-11 20:23:00,46.0,26.4,30.15,WNW,292,6.0,6.0,46,0.00,,,0.02,VWS V14.01,2013-05-12 01:23:00,
2013-05-11 20:28:00,45.6,26.5,30.15,WNW,292,3.8,3.8,47,0.00,,,0.02,VWS V14.01,2013-05-12 01:28:00,
2013-05-11 20:33:00,45.1,26.6,30.15,WNW,292,4.2,4.2,48,0.00,,,0.02,VWS V14.01,2013-05-12 01:33:00,
2013-05-11 20:38:00,44.7,26.7,30.15,WNW,292,4.4,4.4,49,0.00,,,0.02,VWS V14.01,2013-05-12 01:38:00,
2013-05-11 20:43:00,44.7,26.2,30.15,WNW,292,2.6,2.6,48,0.00,,,0.02,VWS V14.01,2013-05-12 01:43:00,
2013-05-11 20:48:00,44.7,26.7,30.16,NNW,338,0.0,0.0,49,0.00,,,0.02,VWS V14.01,2013-05-12 01:48:00,
2013-05-11 20:53:00,44.9,26.4,30.15,WNW,292,7.3,7.3,48,0.00,,,0.02,VWS V14.01,2013-05-12 01:53:00,
2013-05-11 20:58:00,44.9,26.9,30.15,WNW,292,2.6,2.6,49,0.00,,,0.02,VWS V14.01,2013-05-12 01:58:00,
2013-05-11 21:03:00,44.6,26.6,30.15,West,270,2.9,2.9,49,0.00,,,0.02,VWS V14.01,2013-05-12 02:03:00,
2013-05-11 21:08:00,44.4,26.9,30.16,WNW,292,5.3,5.3,50,0.00,,,0.02,VWS V14.01,2013-05-12 02:08:00,
2013-05-11 21:13:00,44.2,27.2,30.16,WNW,292,4.0,4.0,51,0.00,,,0.02,VWS V14.01,2013-05-12 02:13:00,
2013-05-11 21:18:00,44.0,27.0,30.16,WNW,292,5.3,5.3,51,0.00,,,0.02,VWS V14.01,2013-05-12 02:18:00,
2013-05-11 21:23:00,43.5,27.1,30.16,WNW,292,2.6,2.6,52,0.00,,,0.02,VWS V14.01,2013-05-12 02:23:00,
2013-05-11 21:28:00,43.1,27.1,30.17,WNW,292,3.5,3.5,53,0.00,,,0.02,VWS V14.01,2013-05-12 02:28:00,
2013-05-11 21:33:00,42.8,27.3,30.17,WNW,292,6.4,6.4,54,0.00,,,0.02,VWS V14.01,2013-05-12 02:33:00,
2013-05-11 21:38:00,42.9,27.4,30.17,NW,315,8.5,8.5,54,0.00,,,0.02,VWS V14.01,2013-05-12 02:38:00,
2013-05-11 21:43:00,43.5,27.5,30.17,NW,315,4.4,4.4,53,0.00,,,0.02,VWS V14.01,2013-05-12 02:43:00,
2013-05-11 21:48:00,43.7,27.7,30.17,NNE,22,7.6,7.6,53,0.00,,,0.02,VWS V14.01,2013-05-12 02:48:00,
2013-05-11 21:53:00,43.7,27.7,30.17,WNW,292,7.6,7.6,53,0.00,,,0.02,VWS V14.01,2013-05-12 02:53:00,
2013-05-11 21:58:00,43.8,27.8,30.17,WNW,292,7.1,7.1,53,0.00,,,0.02,VWS V14.01,2013-05-12 02:58:00,
2013-05-11 22:03:00,43.7,28.2,30.18,NW,315,7.3,7.3,54,0.00,,,0.02,VWS V14.01,2013-05-12 03:03:00,
2013-05-11 22:08:00,43.3,28.2,30.18,NW,315,6.2,6.2,55,0.00,,,0.02,VWS V14.01,2013-05-12 03:08:00,
2013-05-11 22:13:00,43.1,28.0,30.18,NNW,338,3.1,3.1,55,0.00,,,0.02,VWS V14.01,2013-05-12 03:13:00,
2013-05-11 22:18:00,42.9,27.9,30.18,NNW,338,7.1,7.1,55,0.00,,,0.02,VWS V14.01,2013-05-12 03:18:00,
2013-05-11 22:23:00,42.9,27.9,30.18,WNW,292,2.9,2.9,55,0.00,,,0.02,VWS V14.01,2013-05-12 03:23:00,
2013-05-11 22:28:00,42.9,27.9,30.18,NNW,338,6.4,6.4,55,0.00,,,0.02,VWS V14.01,2013-05-12 03:28:00,
2013-05-11 22:33:00,42.9,27.9,30.18,NW,315,6.0,6.0,55,0.00,,,0.02,VWS V14.01,2013-05-12 03:33:00,
2013-05-11 22:38:00,42.9,27.9,30.19,NNW,338,2.6,2.6,55,0.00,,,0.02,VWS V14.01,2013-05-12 03:38:00,
2013-05-11 22:43:00,42.6,28.0,30.19,NW,315,5.1,5.1,56,0.00,,,0.02,VWS V14.01,2013-05-12 03:43:00,
2013-05-11 22:48:00,42.6,28.0,30.19,North,0,1.7,1.7,56,0.00,,,0.02,VWS V14.01,2013-05-12 03:48:00,
2013-05-11 22:53:00,42.4,28.3,30.19,WNW,292,0.0,0.0,57,0.00,,,0.02,VWS V14.01,2013-05-12 03:53:00,
2013-05-11 22:58:00,42.0,27.9,30.19,North,0,3.3,3.3,57,0.00,,,0.02,VWS V14.01,2013-05-12 03:58:00,
2013-05-11 23:01:00,42.0,27.9,30.19,WNW,292,2.6,2.6,57,0.00,,,0.02,VWS V14.01,2013-05-12 04:01:00,
2013-05-11 23:06:00,41.7,28.0,30.19,NW,315,2.9,2.9,58,0.00,,,0.02,VWS V14.01,2013-05-12 04:06:00,
2013-05-11 23:11:00,41.5,28.3,30.19,WNW,292,0.2,0.2,59,0.00,,,0.02,VWS V14.01,2013-05-12 04:11:00,
2013-05-11 23:16:00,41.5,28.3,30.19,WNW,292,1.5,1.5,59,0.00,,,0.02,VWS V14.01,2013-05-12 04:16:00,
2013-05-11 23:21:00,41.1,28.3,30.19,NNW,338,0.0,0.0,60,0.00,,,0.02,VWS V14.01,2013-05-12 04:21:00,
2013-05-11 23:26:00,40.8,28.0,30.19,NW,315,2.2,2.2,60,0.00,,,0.02,VWS V14.01,2013-05-12 04:26:00,
2013-05-11 23:31:00,40.6,28.2,30.19,NW,315,2.0,2.0,61,0.00,,,0.02,VWS V14.01,2013-05-12 04:31:00,
2013-05-11 23:36:00,40.2,27.8,30.19,NNW,338,0.8,0.8,61,0.00,,,0.02,VWS V14.01,2013-05-12 04:36:00,
2013-05-11 23:41:00,39.9,28.0,30.19,NW,315,1.5,1.5,62,0.00,,,0.02,VWS V14.01,2013-05-12 04:41:00,
2013-05-11 23:46:00,39.9,28.0,30.19,NNW,338,0.0,0.0,62,0.00,,,0.02,VWS V14.01,2013-05-12 04:46:00,
2013-05-11 23:51:00,39.9,28.0,30.19,NNW,338,0.0,0.0,62,0.00,,,0.02,VWS V14.01,2013-05-12 04:51:00,
2013-05-11 23:56:00,39.7,28.1,30.19,NNW,338,2.0,2.0,63,0.00,,,0.02,VWS V14.01,2013-05-12 04:56:00,